<?xml version="1.0" encoding="UTF-8" standalone="no" ?>
<gpx xmlns="http://www.topografix.com/GPX/1/1" xmlns:xsi="http://www.w3.org/2001/XMLSchema-instance" xsi:schemaLocation="http://www.topografix.com/GPX/1/1 http://www.topografix.com/GPX/1/1/gpx.xsd" version="1.1" creator="VisuGPX - https://www.visugpx.com">
  <metadata>
    <name>RSPFY-Forêt-de-Dourdan</name>
    <desc><![CDATA[Boucle de marche nordique au départ du carrefour de Nemours.]]></desc>
  </metadata>
  <trk>
    <name><![CDATA[2023-04-06 08:57]]></name>
    <desc><![CDATA[<p>Heure de départ: 08:57 6 avr. 2023<br/>Heure d'arrivée: 11:21 6 avr. 2023<br/>Distance: 11,8 km (02:23)<br/>Temps déplacement: 02:09<br/>Vitesse moyenne: 4,93 km/h<br/>Vitesse moyenne mouv.: 5,47 km/h<br/>Vitesse Max.: 8,02 km/h<br/>Altitude minimale: 91 m<br/>Altitude maximale: 170 m<br/>Vitesse de montée: 240,3 m/h<br/>Vitesse de descente: -253,4 m/h<br/>Gain d'altitude: 283 m<br/>Perte d'altitude: -282 m<br/>Temps de montée: 01:10<br/>Temps de descente: 01:06<br/></p><hr align="center" width="480" style="height: 2px; width: 517px"/>]]></desc>
    <trkseg>
      <trkpt lat="48.54524" lon="1.96059">
        <ele>160</ele>
        <time>2023-04-06T06:57:18Z</time>
      </trkpt>
      <trkpt lat="48.54522" lon="1.96045">
        <ele>160</ele>
        <time>2023-04-06T07:00:12Z</time>
      </trkpt>
      <trkpt lat="48.54528" lon="1.96033">
        <ele>160</ele>
        <time>2023-04-06T07:00:19Z</time>
      </trkpt>
      <trkpt lat="48.54534" lon="1.96021">
        <ele>160</ele>
        <time>2023-04-06T07:00:27Z</time>
      </trkpt>
      <trkpt lat="48.54544" lon="1.96018">
        <ele>160</ele>
        <time>2023-04-06T07:00:35Z</time>
      </trkpt>
      <trkpt lat="48.54554" lon="1.96016">
        <ele>160</ele>
        <time>2023-04-06T07:00:43Z</time>
      </trkpt>
      <trkpt lat="48.54562" lon="1.96012">
        <ele>160</ele>
        <time>2023-04-06T07:00:51Z</time>
      </trkpt>
      <trkpt lat="48.54568" lon="1.96">
        <ele>160</ele>
        <time>2023-04-06T07:00:58Z</time>
      </trkpt>
      <trkpt lat="48.54571" lon="1.95987">
        <ele>160</ele>
        <time>2023-04-06T07:01:05Z</time>
      </trkpt>
      <trkpt lat="48.54577" lon="1.95974">
        <ele>160</ele>
        <time>2023-04-06T07:01:12Z</time>
      </trkpt>
      <trkpt lat="48.5458" lon="1.95961">
        <ele>160</ele>
        <time>2023-04-06T07:01:19Z</time>
      </trkpt>
      <trkpt lat="48.54583" lon="1.95947">
        <ele>160</ele>
        <time>2023-04-06T07:01:26Z</time>
      </trkpt>
      <trkpt lat="48.54587" lon="1.95934">
        <ele>159.6</ele>
        <time>2023-04-06T07:01:33Z</time>
      </trkpt>
      <trkpt lat="48.54591" lon="1.95921">
        <ele>159.2</ele>
        <time>2023-04-06T07:01:39Z</time>
      </trkpt>
      <trkpt lat="48.54595" lon="1.95907">
        <ele>159</ele>
        <time>2023-04-06T07:01:46Z</time>
      </trkpt>
      <trkpt lat="48.54599" lon="1.95895">
        <ele>159</ele>
        <time>2023-04-06T07:01:52Z</time>
      </trkpt>
      <trkpt lat="48.54602" lon="1.95881">
        <ele>159</ele>
        <time>2023-04-06T07:01:59Z</time>
      </trkpt>
      <trkpt lat="48.54608" lon="1.95868">
        <ele>159</ele>
        <time>2023-04-06T07:02:07Z</time>
      </trkpt>
      <trkpt lat="48.54613" lon="1.95855">
        <ele>159</ele>
        <time>2023-04-06T07:02:14Z</time>
      </trkpt>
      <trkpt lat="48.54617" lon="1.95843">
        <ele>159</ele>
        <time>2023-04-06T07:02:20Z</time>
      </trkpt>
      <trkpt lat="48.54619" lon="1.95829">
        <ele>159</ele>
        <time>2023-04-06T07:02:27Z</time>
      </trkpt>
      <trkpt lat="48.54623" lon="1.95816">
        <ele>159</ele>
        <time>2023-04-06T07:02:33Z</time>
      </trkpt>
      <trkpt lat="48.54629" lon="1.95805">
        <ele>159</ele>
        <time>2023-04-06T07:02:39Z</time>
      </trkpt>
      <trkpt lat="48.54634" lon="1.95794">
        <ele>159</ele>
        <time>2023-04-06T07:02:46Z</time>
      </trkpt>
      <trkpt lat="48.54639" lon="1.95781">
        <ele>159</ele>
        <time>2023-04-06T07:02:55Z</time>
      </trkpt>
      <trkpt lat="48.54643" lon="1.95769">
        <ele>159</ele>
        <time>2023-04-06T07:03:02Z</time>
      </trkpt>
      <trkpt lat="48.54648" lon="1.95756">
        <ele>159</ele>
        <time>2023-04-06T07:03:08Z</time>
      </trkpt>
      <trkpt lat="48.54652" lon="1.95743">
        <ele>158.7</ele>
        <time>2023-04-06T07:03:17Z</time>
      </trkpt>
      <trkpt lat="48.54657" lon="1.95729">
        <ele>158.3</ele>
        <time>2023-04-06T07:03:23Z</time>
      </trkpt>
      <trkpt lat="48.5466" lon="1.95716">
        <ele>158</ele>
        <time>2023-04-06T07:03:30Z</time>
      </trkpt>
      <trkpt lat="48.54664" lon="1.95702">
        <ele>158</ele>
        <time>2023-04-06T07:03:36Z</time>
      </trkpt>
      <trkpt lat="48.54669" lon="1.95688">
        <ele>158</ele>
        <time>2023-04-06T07:03:42Z</time>
      </trkpt>
      <trkpt lat="48.54673" lon="1.95676">
        <ele>158</ele>
        <time>2023-04-06T07:03:48Z</time>
      </trkpt>
      <trkpt lat="48.54677" lon="1.95663">
        <ele>158</ele>
        <time>2023-04-06T07:03:54Z</time>
      </trkpt>
      <trkpt lat="48.54682" lon="1.95651">
        <ele>158</ele>
        <time>2023-04-06T07:03:59Z</time>
      </trkpt>
      <trkpt lat="48.54687" lon="1.95639">
        <ele>158</ele>
        <time>2023-04-06T07:04:04Z</time>
      </trkpt>
      <trkpt lat="48.54692" lon="1.95626">
        <ele>157.6</ele>
        <time>2023-04-06T07:04:11Z</time>
      </trkpt>
      <trkpt lat="48.54697" lon="1.95614">
        <ele>157.1</ele>
        <time>2023-04-06T07:04:17Z</time>
      </trkpt>
      <trkpt lat="48.54701" lon="1.95599">
        <ele>157</ele>
        <time>2023-04-06T07:04:23Z</time>
      </trkpt>
      <trkpt lat="48.54705" lon="1.95587">
        <ele>157</ele>
        <time>2023-04-06T07:04:29Z</time>
      </trkpt>
      <trkpt lat="48.54709" lon="1.95574">
        <ele>157</ele>
        <time>2023-04-06T07:04:36Z</time>
      </trkpt>
      <trkpt lat="48.54713" lon="1.95561">
        <ele>157</ele>
        <time>2023-04-06T07:04:42Z</time>
      </trkpt>
      <trkpt lat="48.54717" lon="1.95548">
        <ele>157</ele>
        <time>2023-04-06T07:04:48Z</time>
      </trkpt>
      <trkpt lat="48.54722" lon="1.95536">
        <ele>157</ele>
        <time>2023-04-06T07:04:55Z</time>
      </trkpt>
      <trkpt lat="48.54726" lon="1.95523">
        <ele>156.8</ele>
        <time>2023-04-06T07:05:01Z</time>
      </trkpt>
      <trkpt lat="48.5473" lon="1.95509">
        <ele>156.5</ele>
        <time>2023-04-06T07:05:08Z</time>
      </trkpt>
      <trkpt lat="48.54734" lon="1.95496">
        <ele>156.4</ele>
        <time>2023-04-06T07:05:14Z</time>
      </trkpt>
      <trkpt lat="48.54736" lon="1.95482">
        <ele>156.5</ele>
        <time>2023-04-06T07:05:21Z</time>
      </trkpt>
      <trkpt lat="48.5474" lon="1.95469">
        <ele>156.6</ele>
        <time>2023-04-06T07:05:28Z</time>
      </trkpt>
      <trkpt lat="48.54744" lon="1.95456">
        <ele>156.3</ele>
        <time>2023-04-06T07:05:35Z</time>
      </trkpt>
      <trkpt lat="48.5475" lon="1.95444">
        <ele>156</ele>
        <time>2023-04-06T07:05:42Z</time>
      </trkpt>
      <trkpt lat="48.54754" lon="1.9543">
        <ele>156.2</ele>
        <time>2023-04-06T07:05:49Z</time>
      </trkpt>
      <trkpt lat="48.54759" lon="1.95417">
        <ele>156.3</ele>
        <time>2023-04-06T07:05:56Z</time>
      </trkpt>
      <trkpt lat="48.54764" lon="1.95404">
        <ele>156.5</ele>
        <time>2023-04-06T07:06:04Z</time>
      </trkpt>
      <trkpt lat="48.54768" lon="1.9539">
        <ele>156.7</ele>
        <time>2023-04-06T07:06:11Z</time>
      </trkpt>
      <trkpt lat="48.54774" lon="1.95378">
        <ele>156.9</ele>
        <time>2023-04-06T07:06:17Z</time>
      </trkpt>
      <trkpt lat="48.54778" lon="1.95365">
        <ele>157</ele>
        <time>2023-04-06T07:06:23Z</time>
      </trkpt>
      <trkpt lat="48.54782" lon="1.95353">
        <ele>157</ele>
        <time>2023-04-06T07:06:29Z</time>
      </trkpt>
      <trkpt lat="48.54788" lon="1.95341">
        <ele>157</ele>
        <time>2023-04-06T07:06:36Z</time>
      </trkpt>
      <trkpt lat="48.54793" lon="1.95327">
        <ele>156.9</ele>
        <time>2023-04-06T07:06:43Z</time>
      </trkpt>
      <trkpt lat="48.54797" lon="1.95313">
        <ele>156.8</ele>
        <time>2023-04-06T07:06:49Z</time>
      </trkpt>
      <trkpt lat="48.54803" lon="1.95301">
        <ele>156.9</ele>
        <time>2023-04-06T07:06:55Z</time>
      </trkpt>
      <trkpt lat="48.54807" lon="1.95287">
        <ele>157.1</ele>
        <time>2023-04-06T07:07:02Z</time>
      </trkpt>
      <trkpt lat="48.5481" lon="1.95274">
        <ele>157.1</ele>
        <time>2023-04-06T07:07:08Z</time>
      </trkpt>
      <trkpt lat="48.54812" lon="1.9526">
        <ele>157.2</ele>
        <time>2023-04-06T07:07:13Z</time>
      </trkpt>
      <trkpt lat="48.54816" lon="1.95248">
        <ele>157.4</ele>
        <time>2023-04-06T07:07:20Z</time>
      </trkpt>
      <trkpt lat="48.5482" lon="1.95235">
        <ele>157.5</ele>
        <time>2023-04-06T07:07:27Z</time>
      </trkpt>
      <trkpt lat="48.54825" lon="1.95223">
        <ele>157.7</ele>
        <time>2023-04-06T07:07:34Z</time>
      </trkpt>
      <trkpt lat="48.5483" lon="1.95211">
        <ele>157.5</ele>
        <time>2023-04-06T07:07:41Z</time>
      </trkpt>
      <trkpt lat="48.54834" lon="1.95196">
        <ele>157.1</ele>
        <time>2023-04-06T07:07:49Z</time>
      </trkpt>
      <trkpt lat="48.54838" lon="1.95184">
        <ele>157.2</ele>
        <time>2023-04-06T07:07:55Z</time>
      </trkpt>
      <trkpt lat="48.54842" lon="1.9517">
        <ele>157.3</ele>
        <time>2023-04-06T07:08:01Z</time>
      </trkpt>
      <trkpt lat="48.54846" lon="1.95158">
        <ele>157.5</ele>
        <time>2023-04-06T07:08:07Z</time>
      </trkpt>
      <trkpt lat="48.54852" lon="1.95146">
        <ele>157.7</ele>
        <time>2023-04-06T07:08:14Z</time>
      </trkpt>
      <trkpt lat="48.54858" lon="1.95133">
        <ele>157.9</ele>
        <time>2023-04-06T07:08:21Z</time>
      </trkpt>
      <trkpt lat="48.54863" lon="1.95121">
        <ele>158.1</ele>
        <time>2023-04-06T07:08:28Z</time>
      </trkpt>
      <trkpt lat="48.54867" lon="1.95106">
        <ele>158</ele>
        <time>2023-04-06T07:08:35Z</time>
      </trkpt>
      <trkpt lat="48.5487" lon="1.95092">
        <ele>157.6</ele>
        <time>2023-04-06T07:08:42Z</time>
      </trkpt>
      <trkpt lat="48.54874" lon="1.95078">
        <ele>157.5</ele>
        <time>2023-04-06T07:08:48Z</time>
      </trkpt>
      <trkpt lat="48.54878" lon="1.95064">
        <ele>157.6</ele>
        <time>2023-04-06T07:08:55Z</time>
      </trkpt>
      <trkpt lat="48.54882" lon="1.95052">
        <ele>157.8</ele>
        <time>2023-04-06T07:09:02Z</time>
      </trkpt>
      <trkpt lat="48.54885" lon="1.95039">
        <ele>157.9</ele>
        <time>2023-04-06T07:09:08Z</time>
      </trkpt>
      <trkpt lat="48.5489" lon="1.95026">
        <ele>158</ele>
        <time>2023-04-06T07:09:14Z</time>
      </trkpt>
      <trkpt lat="48.54895" lon="1.95013">
        <ele>158.2</ele>
        <time>2023-04-06T07:09:20Z</time>
      </trkpt>
      <trkpt lat="48.54899" lon="1.94999">
        <ele>158.3</ele>
        <time>2023-04-06T07:09:26Z</time>
      </trkpt>
      <trkpt lat="48.54904" lon="1.94987">
        <ele>158.1</ele>
        <time>2023-04-06T07:09:33Z</time>
      </trkpt>
      <trkpt lat="48.54909" lon="1.94973">
        <ele>157.8</ele>
        <time>2023-04-06T07:09:40Z</time>
      </trkpt>
      <trkpt lat="48.54913" lon="1.9496">
        <ele>157.9</ele>
        <time>2023-04-06T07:09:47Z</time>
      </trkpt>
      <trkpt lat="48.54917" lon="1.94946">
        <ele>158</ele>
        <time>2023-04-06T07:09:54Z</time>
      </trkpt>
      <trkpt lat="48.54923" lon="1.94934">
        <ele>158.2</ele>
        <time>2023-04-06T07:10:01Z</time>
      </trkpt>
      <trkpt lat="48.54927" lon="1.9492">
        <ele>158.4</ele>
        <time>2023-04-06T07:10:08Z</time>
      </trkpt>
      <trkpt lat="48.54932" lon="1.94908">
        <ele>158.6</ele>
        <time>2023-04-06T07:10:14Z</time>
      </trkpt>
      <trkpt lat="48.54937" lon="1.94896">
        <ele>158.7</ele>
        <time>2023-04-06T07:10:20Z</time>
      </trkpt>
      <trkpt lat="48.54943" lon="1.94882">
        <ele>158.9</ele>
        <time>2023-04-06T07:10:27Z</time>
      </trkpt>
      <trkpt lat="48.54948" lon="1.9487">
        <ele>159</ele>
        <time>2023-04-06T07:10:33Z</time>
      </trkpt>
      <trkpt lat="48.54951" lon="1.94857">
        <ele>158.9</ele>
        <time>2023-04-06T07:10:39Z</time>
      </trkpt>
      <trkpt lat="48.54954" lon="1.94844">
        <ele>158.6</ele>
        <time>2023-04-06T07:10:46Z</time>
      </trkpt>
      <trkpt lat="48.5496" lon="1.94831">
        <ele>158.6</ele>
        <time>2023-04-06T07:10:52Z</time>
      </trkpt>
      <trkpt lat="48.54964" lon="1.94818">
        <ele>158.7</ele>
        <time>2023-04-06T07:10:59Z</time>
      </trkpt>
      <trkpt lat="48.54969" lon="1.94805">
        <ele>158.9</ele>
        <time>2023-04-06T07:11:06Z</time>
      </trkpt>
      <trkpt lat="48.54974" lon="1.94793">
        <ele>159</ele>
        <time>2023-04-06T07:11:12Z</time>
      </trkpt>
      <trkpt lat="48.54978" lon="1.94779">
        <ele>159</ele>
        <time>2023-04-06T07:11:19Z</time>
      </trkpt>
      <trkpt lat="48.54982" lon="1.94766">
        <ele>159</ele>
        <time>2023-04-06T07:11:26Z</time>
      </trkpt>
      <trkpt lat="48.54985" lon="1.94753">
        <ele>159</ele>
        <time>2023-04-06T07:11:32Z</time>
      </trkpt>
      <trkpt lat="48.5499" lon="1.9474">
        <ele>159</ele>
        <time>2023-04-06T07:11:39Z</time>
      </trkpt>
      <trkpt lat="48.54995" lon="1.94728">
        <ele>159</ele>
        <time>2023-04-06T07:11:46Z</time>
      </trkpt>
      <trkpt lat="48.55" lon="1.94715">
        <ele>159</ele>
        <time>2023-04-06T07:11:53Z</time>
      </trkpt>
      <trkpt lat="48.55005" lon="1.94702">
        <ele>159</ele>
        <time>2023-04-06T07:12:00Z</time>
      </trkpt>
      <trkpt lat="48.55009" lon="1.94688">
        <ele>159</ele>
        <time>2023-04-06T07:12:07Z</time>
      </trkpt>
      <trkpt lat="48.55014" lon="1.94675">
        <ele>159</ele>
        <time>2023-04-06T07:12:14Z</time>
      </trkpt>
      <trkpt lat="48.55018" lon="1.94661">
        <ele>159</ele>
        <time>2023-04-06T07:12:21Z</time>
      </trkpt>
      <trkpt lat="48.55024" lon="1.94649">
        <ele>159</ele>
        <time>2023-04-06T07:12:28Z</time>
      </trkpt>
      <trkpt lat="48.5503" lon="1.94637">
        <ele>159.1</ele>
        <time>2023-04-06T07:12:35Z</time>
      </trkpt>
      <trkpt lat="48.55033" lon="1.94624">
        <ele>159.2</ele>
        <time>2023-04-06T07:12:41Z</time>
      </trkpt>
      <trkpt lat="48.55036" lon="1.94609">
        <ele>159.4</ele>
        <time>2023-04-06T07:12:48Z</time>
      </trkpt>
      <trkpt lat="48.5504" lon="1.94595">
        <ele>159.8</ele>
        <time>2023-04-06T07:12:55Z</time>
      </trkpt>
      <trkpt lat="48.55044" lon="1.94582">
        <ele>160</ele>
        <time>2023-04-06T07:13:01Z</time>
      </trkpt>
      <trkpt lat="48.55047" lon="1.94569">
        <ele>160</ele>
        <time>2023-04-06T07:13:07Z</time>
      </trkpt>
      <trkpt lat="48.55052" lon="1.94557">
        <ele>160</ele>
        <time>2023-04-06T07:13:13Z</time>
      </trkpt>
      <trkpt lat="48.55057" lon="1.94544">
        <ele>160</ele>
        <time>2023-04-06T07:13:20Z</time>
      </trkpt>
      <trkpt lat="48.55062" lon="1.94531">
        <ele>160</ele>
        <time>2023-04-06T07:13:27Z</time>
      </trkpt>
      <trkpt lat="48.55065" lon="1.94517">
        <ele>160.1</ele>
        <time>2023-04-06T07:13:33Z</time>
      </trkpt>
      <trkpt lat="48.5507" lon="1.94505">
        <ele>160.4</ele>
        <time>2023-04-06T07:13:39Z</time>
      </trkpt>
      <trkpt lat="48.55075" lon="1.94493">
        <ele>160.8</ele>
        <time>2023-04-06T07:13:45Z</time>
      </trkpt>
      <trkpt lat="48.55079" lon="1.9448">
        <ele>161</ele>
        <time>2023-04-06T07:13:51Z</time>
      </trkpt>
      <trkpt lat="48.55083" lon="1.94466">
        <ele>161</ele>
        <time>2023-04-06T07:13:58Z</time>
      </trkpt>
      <trkpt lat="48.55087" lon="1.94453">
        <ele>161</ele>
        <time>2023-04-06T07:14:04Z</time>
      </trkpt>
      <trkpt lat="48.55091" lon="1.94439">
        <ele>161</ele>
        <time>2023-04-06T07:14:10Z</time>
      </trkpt>
      <trkpt lat="48.55094" lon="1.94426">
        <ele>161</ele>
        <time>2023-04-06T07:14:16Z</time>
      </trkpt>
      <trkpt lat="48.551" lon="1.94413">
        <ele>161</ele>
        <time>2023-04-06T07:14:23Z</time>
      </trkpt>
      <trkpt lat="48.55104" lon="1.944">
        <ele>161</ele>
        <time>2023-04-06T07:14:29Z</time>
      </trkpt>
      <trkpt lat="48.55111" lon="1.94389">
        <ele>161</ele>
        <time>2023-04-06T07:14:36Z</time>
      </trkpt>
      <trkpt lat="48.55115" lon="1.94376">
        <ele>161.5</ele>
        <time>2023-04-06T07:14:41Z</time>
      </trkpt>
      <trkpt lat="48.55118" lon="1.94363">
        <ele>162</ele>
        <time>2023-04-06T07:14:48Z</time>
      </trkpt>
      <trkpt lat="48.55122" lon="1.94349">
        <ele>162</ele>
        <time>2023-04-06T07:14:56Z</time>
      </trkpt>
      <trkpt lat="48.55125" lon="1.94335">
        <ele>162</ele>
        <time>2023-04-06T07:15:03Z</time>
      </trkpt>
      <trkpt lat="48.55129" lon="1.94321">
        <ele>162</ele>
        <time>2023-04-06T07:15:11Z</time>
      </trkpt>
      <trkpt lat="48.55133" lon="1.94308">
        <ele>162</ele>
        <time>2023-04-06T07:15:17Z</time>
      </trkpt>
      <trkpt lat="48.55138" lon="1.94294">
        <ele>162</ele>
        <time>2023-04-06T07:15:24Z</time>
      </trkpt>
      <trkpt lat="48.55142" lon="1.94281">
        <ele>162</ele>
        <time>2023-04-06T07:15:30Z</time>
      </trkpt>
      <trkpt lat="48.55147" lon="1.94267">
        <ele>162</ele>
        <time>2023-04-06T07:15:37Z</time>
      </trkpt>
      <trkpt lat="48.55149" lon="1.94254">
        <ele>162</ele>
        <time>2023-04-06T07:15:43Z</time>
      </trkpt>
      <trkpt lat="48.55153" lon="1.9424">
        <ele>161.8</ele>
        <time>2023-04-06T07:15:50Z</time>
      </trkpt>
      <trkpt lat="48.55158" lon="1.94227">
        <ele>161.7</ele>
        <time>2023-04-06T07:15:57Z</time>
      </trkpt>
      <trkpt lat="48.55162" lon="1.94213">
        <ele>161.6</ele>
        <time>2023-04-06T07:16:04Z</time>
      </trkpt>
      <trkpt lat="48.55167" lon="1.94201">
        <ele>161.2</ele>
        <time>2023-04-06T07:16:10Z</time>
      </trkpt>
      <trkpt lat="48.55171" lon="1.94188">
        <ele>161</ele>
        <time>2023-04-06T07:16:18Z</time>
      </trkpt>
      <trkpt lat="48.55176" lon="1.94176">
        <ele>161</ele>
        <time>2023-04-06T07:16:25Z</time>
      </trkpt>
      <trkpt lat="48.55181" lon="1.94163">
        <ele>161</ele>
        <time>2023-04-06T07:16:31Z</time>
      </trkpt>
      <trkpt lat="48.55186" lon="1.9415">
        <ele>161</ele>
        <time>2023-04-06T07:16:37Z</time>
      </trkpt>
      <trkpt lat="48.5519" lon="1.94137">
        <ele>161</ele>
        <time>2023-04-06T07:16:43Z</time>
      </trkpt>
      <trkpt lat="48.55194" lon="1.94123">
        <ele>161</ele>
        <time>2023-04-06T07:16:49Z</time>
      </trkpt>
      <trkpt lat="48.55199" lon="1.9411">
        <ele>161</ele>
        <time>2023-04-06T07:16:56Z</time>
      </trkpt>
      <trkpt lat="48.55204" lon="1.94096">
        <ele>161</ele>
        <time>2023-04-06T07:17:03Z</time>
      </trkpt>
      <trkpt lat="48.55209" lon="1.94083">
        <ele>161</ele>
        <time>2023-04-06T07:17:08Z</time>
      </trkpt>
      <trkpt lat="48.55214" lon="1.94069">
        <ele>161</ele>
        <time>2023-04-06T07:17:14Z</time>
      </trkpt>
      <trkpt lat="48.55217" lon="1.94055">
        <ele>161</ele>
        <time>2023-04-06T07:17:21Z</time>
      </trkpt>
      <trkpt lat="48.55222" lon="1.94042">
        <ele>161</ele>
        <time>2023-04-06T07:17:29Z</time>
      </trkpt>
      <trkpt lat="48.55227" lon="1.94031">
        <ele>161</ele>
        <time>2023-04-06T07:17:36Z</time>
      </trkpt>
      <trkpt lat="48.55231" lon="1.94019">
        <ele>161</ele>
        <time>2023-04-06T07:17:42Z</time>
      </trkpt>
      <trkpt lat="48.55235" lon="1.94005">
        <ele>161</ele>
        <time>2023-04-06T07:17:49Z</time>
      </trkpt>
      <trkpt lat="48.55239" lon="1.93991">
        <ele>161</ele>
        <time>2023-04-06T07:17:56Z</time>
      </trkpt>
      <trkpt lat="48.55244" lon="1.93978">
        <ele>161</ele>
        <time>2023-04-06T07:18:03Z</time>
      </trkpt>
      <trkpt lat="48.55248" lon="1.93964">
        <ele>161</ele>
        <time>2023-04-06T07:18:09Z</time>
      </trkpt>
      <trkpt lat="48.55252" lon="1.93949">
        <ele>161</ele>
        <time>2023-04-06T07:18:15Z</time>
      </trkpt>
      <trkpt lat="48.55256" lon="1.93936">
        <ele>161</ele>
        <time>2023-04-06T07:18:21Z</time>
      </trkpt>
      <trkpt lat="48.55261" lon="1.93922">
        <ele>161</ele>
        <time>2023-04-06T07:18:28Z</time>
      </trkpt>
      <trkpt lat="48.55264" lon="1.93908">
        <ele>160.7</ele>
        <time>2023-04-06T07:18:34Z</time>
      </trkpt>
      <trkpt lat="48.55269" lon="1.93894">
        <ele>160.2</ele>
        <time>2023-04-06T07:18:41Z</time>
      </trkpt>
      <trkpt lat="48.55273" lon="1.93881">
        <ele>160</ele>
        <time>2023-04-06T07:18:48Z</time>
      </trkpt>
      <trkpt lat="48.55278" lon="1.93868">
        <ele>160</ele>
        <time>2023-04-06T07:18:55Z</time>
      </trkpt>
      <trkpt lat="48.55283" lon="1.93854">
        <ele>160</ele>
        <time>2023-04-06T07:19:02Z</time>
      </trkpt>
      <trkpt lat="48.55287" lon="1.9384">
        <ele>160</ele>
        <time>2023-04-06T07:19:09Z</time>
      </trkpt>
      <trkpt lat="48.55291" lon="1.93826">
        <ele>159.9</ele>
        <time>2023-04-06T07:19:16Z</time>
      </trkpt>
      <trkpt lat="48.55296" lon="1.93814">
        <ele>159.8</ele>
        <time>2023-04-06T07:19:22Z</time>
      </trkpt>
      <trkpt lat="48.55301" lon="1.93801">
        <ele>159.7</ele>
        <time>2023-04-06T07:19:29Z</time>
      </trkpt>
      <trkpt lat="48.55306" lon="1.93787">
        <ele>159.3</ele>
        <time>2023-04-06T07:19:36Z</time>
      </trkpt>
      <trkpt lat="48.5531" lon="1.93775">
        <ele>159.1</ele>
        <time>2023-04-06T07:19:42Z</time>
      </trkpt>
      <trkpt lat="48.55314" lon="1.93761">
        <ele>159.1</ele>
        <time>2023-04-06T07:19:48Z</time>
      </trkpt>
      <trkpt lat="48.55318" lon="1.93748">
        <ele>159</ele>
        <time>2023-04-06T07:19:54Z</time>
      </trkpt>
      <trkpt lat="48.55322" lon="1.93736">
        <ele>159</ele>
        <time>2023-04-06T07:20:00Z</time>
      </trkpt>
      <trkpt lat="48.55327" lon="1.93722">
        <ele>159</ele>
        <time>2023-04-06T07:20:07Z</time>
      </trkpt>
      <trkpt lat="48.55331" lon="1.9371">
        <ele>159</ele>
        <time>2023-04-06T07:20:13Z</time>
      </trkpt>
      <trkpt lat="48.55334" lon="1.93697">
        <ele>159</ele>
        <time>2023-04-06T07:20:20Z</time>
      </trkpt>
      <trkpt lat="48.55338" lon="1.93683">
        <ele>159</ele>
        <time>2023-04-06T07:20:27Z</time>
      </trkpt>
      <trkpt lat="48.55342" lon="1.9367">
        <ele>159</ele>
        <time>2023-04-06T07:20:33Z</time>
      </trkpt>
      <trkpt lat="48.55347" lon="1.93658">
        <ele>159</ele>
        <time>2023-04-06T07:20:39Z</time>
      </trkpt>
      <trkpt lat="48.55352" lon="1.93645">
        <ele>159</ele>
        <time>2023-04-06T07:20:46Z</time>
      </trkpt>
      <trkpt lat="48.55356" lon="1.93632">
        <ele>159</ele>
        <time>2023-04-06T07:20:53Z</time>
      </trkpt>
      <trkpt lat="48.5536" lon="1.9362">
        <ele>159</ele>
        <time>2023-04-06T07:21:00Z</time>
      </trkpt>
      <trkpt lat="48.55364" lon="1.93607">
        <ele>158.8</ele>
        <time>2023-04-06T07:21:07Z</time>
      </trkpt>
      <trkpt lat="48.55365" lon="1.93593">
        <ele>158.4</ele>
        <time>2023-04-06T07:21:14Z</time>
      </trkpt>
      <trkpt lat="48.55357" lon="1.93587">
        <ele>158.1</ele>
        <time>2023-04-06T07:21:21Z</time>
      </trkpt>
      <trkpt lat="48.55348" lon="1.93585">
        <ele>158</ele>
        <time>2023-04-06T07:21:29Z</time>
      </trkpt>
      <trkpt lat="48.55339" lon="1.9358">
        <ele>157.9</ele>
        <time>2023-04-06T07:21:36Z</time>
      </trkpt>
      <trkpt lat="48.5533" lon="1.93577">
        <ele>157.8</ele>
        <time>2023-04-06T07:21:43Z</time>
      </trkpt>
      <trkpt lat="48.5532" lon="1.93572">
        <ele>157.6</ele>
        <time>2023-04-06T07:21:51Z</time>
      </trkpt>
      <trkpt lat="48.55311" lon="1.93567">
        <ele>157.4</ele>
        <time>2023-04-06T07:21:57Z</time>
      </trkpt>
      <trkpt lat="48.55302" lon="1.93563">
        <ele>157.2</ele>
        <time>2023-04-06T07:22:04Z</time>
      </trkpt>
      <trkpt lat="48.55293" lon="1.93559">
        <ele>157.1</ele>
        <time>2023-04-06T07:22:10Z</time>
      </trkpt>
      <trkpt lat="48.55283" lon="1.93557">
        <ele>157</ele>
        <time>2023-04-06T07:22:17Z</time>
      </trkpt>
      <trkpt lat="48.55274" lon="1.93556">
        <ele>157</ele>
        <time>2023-04-06T07:22:23Z</time>
      </trkpt>
      <trkpt lat="48.55265" lon="1.93557">
        <ele>157</ele>
        <time>2023-04-06T07:22:29Z</time>
      </trkpt>
      <trkpt lat="48.55255" lon="1.93558">
        <ele>157.1</ele>
        <time>2023-04-06T07:22:36Z</time>
      </trkpt>
      <trkpt lat="48.55246" lon="1.9356">
        <ele>157.1</ele>
        <time>2023-04-06T07:22:43Z</time>
      </trkpt>
      <trkpt lat="48.55236" lon="1.9356">
        <ele>157.1</ele>
        <time>2023-04-06T07:22:51Z</time>
      </trkpt>
      <trkpt lat="48.55226" lon="1.93559">
        <ele>157</ele>
        <time>2023-04-06T07:22:59Z</time>
      </trkpt>
      <trkpt lat="48.55216" lon="1.93559">
        <ele>157</ele>
        <time>2023-04-06T07:23:06Z</time>
      </trkpt>
      <trkpt lat="48.55207" lon="1.93558">
        <ele>157</ele>
        <time>2023-04-06T07:23:12Z</time>
      </trkpt>
      <trkpt lat="48.55197" lon="1.93558">
        <ele>157</ele>
        <time>2023-04-06T07:23:18Z</time>
      </trkpt>
      <trkpt lat="48.55187" lon="1.93559">
        <ele>157</ele>
        <time>2023-04-06T07:23:24Z</time>
      </trkpt>
      <trkpt lat="48.55178" lon="1.93555">
        <ele>157</ele>
        <time>2023-04-06T07:23:31Z</time>
      </trkpt>
      <trkpt lat="48.55169" lon="1.93551">
        <ele>156.8</ele>
        <time>2023-04-06T07:23:39Z</time>
      </trkpt>
      <trkpt lat="48.5516" lon="1.93543">
        <ele>156.5</ele>
        <time>2023-04-06T07:23:47Z</time>
      </trkpt>
      <trkpt lat="48.55152" lon="1.93536">
        <ele>156.3</ele>
        <time>2023-04-06T07:23:54Z</time>
      </trkpt>
      <trkpt lat="48.55142" lon="1.93531">
        <ele>156.1</ele>
        <time>2023-04-06T07:24:01Z</time>
      </trkpt>
      <trkpt lat="48.55133" lon="1.93526">
        <ele>156.2</ele>
        <time>2023-04-06T07:24:07Z</time>
      </trkpt>
      <trkpt lat="48.55122" lon="1.93523">
        <ele>156.5</ele>
        <time>2023-04-06T07:24:13Z</time>
      </trkpt>
      <trkpt lat="48.55113" lon="1.9352">
        <ele>156.6</ele>
        <time>2023-04-06T07:24:19Z</time>
      </trkpt>
      <trkpt lat="48.55104" lon="1.93518">
        <ele>156.7</ele>
        <time>2023-04-06T07:24:26Z</time>
      </trkpt>
      <trkpt lat="48.55094" lon="1.93517">
        <ele>156.9</ele>
        <time>2023-04-06T07:24:33Z</time>
      </trkpt>
      <trkpt lat="48.55085" lon="1.93516">
        <ele>157</ele>
        <time>2023-04-06T07:24:39Z</time>
      </trkpt>
      <trkpt lat="48.55075" lon="1.93513">
        <ele>157</ele>
        <time>2023-04-06T07:24:46Z</time>
      </trkpt>
      <trkpt lat="48.55065" lon="1.93508">
        <ele>157</ele>
        <time>2023-04-06T07:24:53Z</time>
      </trkpt>
      <trkpt lat="48.55055" lon="1.93507">
        <ele>157</ele>
        <time>2023-04-06T07:25:00Z</time>
      </trkpt>
      <trkpt lat="48.55045" lon="1.93506">
        <ele>157</ele>
        <time>2023-04-06T07:25:07Z</time>
      </trkpt>
      <trkpt lat="48.55036" lon="1.93507">
        <ele>157</ele>
        <time>2023-04-06T07:25:15Z</time>
      </trkpt>
      <trkpt lat="48.55027" lon="1.93512">
        <ele>157</ele>
        <time>2023-04-06T07:25:22Z</time>
      </trkpt>
      <trkpt lat="48.55018" lon="1.93514">
        <ele>157</ele>
        <time>2023-04-06T07:25:30Z</time>
      </trkpt>
      <trkpt lat="48.55008" lon="1.93517">
        <ele>157</ele>
        <time>2023-04-06T07:25:38Z</time>
      </trkpt>
      <trkpt lat="48.54998" lon="1.93521">
        <ele>157</ele>
        <time>2023-04-06T07:25:45Z</time>
      </trkpt>
      <trkpt lat="48.54988" lon="1.93524">
        <ele>157</ele>
        <time>2023-04-06T07:25:53Z</time>
      </trkpt>
      <trkpt lat="48.54979" lon="1.93527">
        <ele>157</ele>
        <time>2023-04-06T07:26:00Z</time>
      </trkpt>
      <trkpt lat="48.5497" lon="1.93531">
        <ele>157.1</ele>
        <time>2023-04-06T07:26:06Z</time>
      </trkpt>
      <trkpt lat="48.54961" lon="1.93536">
        <ele>157.3</ele>
        <time>2023-04-06T07:26:13Z</time>
      </trkpt>
      <trkpt lat="48.54952" lon="1.9354">
        <ele>157.4</ele>
        <time>2023-04-06T07:26:19Z</time>
      </trkpt>
      <trkpt lat="48.54942" lon="1.93544">
        <ele>157.7</ele>
        <time>2023-04-06T07:26:26Z</time>
      </trkpt>
      <trkpt lat="48.54933" lon="1.93547">
        <ele>158.1</ele>
        <time>2023-04-06T07:26:33Z</time>
      </trkpt>
      <trkpt lat="48.54924" lon="1.93553">
        <ele>158.6</ele>
        <time>2023-04-06T07:26:40Z</time>
      </trkpt>
      <trkpt lat="48.54915" lon="1.93557">
        <ele>158.9</ele>
        <time>2023-04-06T07:26:47Z</time>
      </trkpt>
      <trkpt lat="48.54905" lon="1.93561">
        <ele>158.7</ele>
        <time>2023-04-06T07:26:53Z</time>
      </trkpt>
      <trkpt lat="48.54896" lon="1.93566">
        <ele>158.5</ele>
        <time>2023-04-06T07:27:00Z</time>
      </trkpt>
      <trkpt lat="48.54888" lon="1.93573">
        <ele>158.6</ele>
        <time>2023-04-06T07:27:06Z</time>
      </trkpt>
      <trkpt lat="48.5488" lon="1.93583">
        <ele>158.3</ele>
        <time>2023-04-06T07:27:13Z</time>
      </trkpt>
      <trkpt lat="48.54874" lon="1.93592">
        <ele>158.1</ele>
        <time>2023-04-06T07:27:19Z</time>
      </trkpt>
      <trkpt lat="48.54868" lon="1.93603">
        <ele>158</ele>
        <time>2023-04-06T07:27:26Z</time>
      </trkpt>
      <trkpt lat="48.54861" lon="1.93613">
        <ele>158</ele>
        <time>2023-04-06T07:27:33Z</time>
      </trkpt>
      <trkpt lat="48.54855" lon="1.93625">
        <ele>157.9</ele>
        <time>2023-04-06T07:27:41Z</time>
      </trkpt>
      <trkpt lat="48.54851" lon="1.93637">
        <ele>158</ele>
        <time>2023-04-06T07:27:47Z</time>
      </trkpt>
      <trkpt lat="48.54846" lon="1.93652">
        <ele>158.5</ele>
        <time>2023-04-06T07:27:54Z</time>
      </trkpt>
      <trkpt lat="48.54842" lon="1.93666">
        <ele>159</ele>
        <time>2023-04-06T07:28:00Z</time>
      </trkpt>
      <trkpt lat="48.54839" lon="1.9368">
        <ele>159</ele>
        <time>2023-04-06T07:28:06Z</time>
      </trkpt>
      <trkpt lat="48.54837" lon="1.93694">
        <ele>159</ele>
        <time>2023-04-06T07:28:13Z</time>
      </trkpt>
      <trkpt lat="48.54836" lon="1.93709">
        <ele>159</ele>
        <time>2023-04-06T07:28:21Z</time>
      </trkpt>
      <trkpt lat="48.54832" lon="1.93722">
        <ele>159</ele>
        <time>2023-04-06T07:28:27Z</time>
      </trkpt>
      <trkpt lat="48.5483" lon="1.93735">
        <ele>159</ele>
        <time>2023-04-06T07:28:35Z</time>
      </trkpt>
      <trkpt lat="48.54827" lon="1.9375">
        <ele>159</ele>
        <time>2023-04-06T07:28:42Z</time>
      </trkpt>
      <trkpt lat="48.54825" lon="1.93763">
        <ele>159</ele>
        <time>2023-04-06T07:28:49Z</time>
      </trkpt>
      <trkpt lat="48.54824" lon="1.93777">
        <ele>159</ele>
        <time>2023-04-06T07:28:57Z</time>
      </trkpt>
      <trkpt lat="48.54821" lon="1.93791">
        <ele>159</ele>
        <time>2023-04-06T07:29:05Z</time>
      </trkpt>
      <trkpt lat="48.54819" lon="1.93806">
        <ele>159</ele>
        <time>2023-04-06T07:29:13Z</time>
      </trkpt>
      <trkpt lat="48.54819" lon="1.93821">
        <ele>159.5</ele>
        <time>2023-04-06T07:29:21Z</time>
      </trkpt>
      <trkpt lat="48.54818" lon="1.93836">
        <ele>160</ele>
        <time>2023-04-06T07:29:28Z</time>
      </trkpt>
      <trkpt lat="48.54818" lon="1.93851">
        <ele>160</ele>
        <time>2023-04-06T07:29:36Z</time>
      </trkpt>
      <trkpt lat="48.54821" lon="1.93864">
        <ele>160</ele>
        <time>2023-04-06T07:29:43Z</time>
      </trkpt>
      <trkpt lat="48.54819" lon="1.9388">
        <ele>160</ele>
        <time>2023-04-06T07:29:50Z</time>
      </trkpt>
      <trkpt lat="48.5482" lon="1.93895">
        <ele>160</ele>
        <time>2023-04-06T07:29:56Z</time>
      </trkpt>
      <trkpt lat="48.54819" lon="1.9391">
        <ele>160</ele>
        <time>2023-04-06T07:30:03Z</time>
      </trkpt>
      <trkpt lat="48.54818" lon="1.93925">
        <ele>160.2</ele>
        <time>2023-04-06T07:30:10Z</time>
      </trkpt>
      <trkpt lat="48.54815" lon="1.93938">
        <ele>160.5</ele>
        <time>2023-04-06T07:30:17Z</time>
      </trkpt>
      <trkpt lat="48.54809" lon="1.93949">
        <ele>160.9</ele>
        <time>2023-04-06T07:30:25Z</time>
      </trkpt>
      <trkpt lat="48.54801" lon="1.93957">
        <ele>161</ele>
        <time>2023-04-06T07:30:31Z</time>
      </trkpt>
      <trkpt lat="48.54793" lon="1.93965">
        <ele>161</ele>
        <time>2023-04-06T07:30:39Z</time>
      </trkpt>
      <trkpt lat="48.54784" lon="1.9397">
        <ele>161</ele>
        <time>2023-04-06T07:30:46Z</time>
      </trkpt>
      <trkpt lat="48.54774" lon="1.93972">
        <ele>161</ele>
        <time>2023-04-06T07:30:53Z</time>
      </trkpt>
      <trkpt lat="48.54765" lon="1.93975">
        <ele>161</ele>
        <time>2023-04-06T07:31:00Z</time>
      </trkpt>
      <trkpt lat="48.54755" lon="1.93975">
        <ele>161</ele>
        <time>2023-04-06T07:31:08Z</time>
      </trkpt>
      <trkpt lat="48.54745" lon="1.93977">
        <ele>161</ele>
        <time>2023-04-06T07:31:14Z</time>
      </trkpt>
      <trkpt lat="48.54736" lon="1.9398">
        <ele>161</ele>
        <time>2023-04-06T07:31:21Z</time>
      </trkpt>
      <trkpt lat="48.54727" lon="1.93985">
        <ele>161</ele>
        <time>2023-04-06T07:31:27Z</time>
      </trkpt>
      <trkpt lat="48.54719" lon="1.9399">
        <ele>161</ele>
        <time>2023-04-06T07:31:33Z</time>
      </trkpt>
      <trkpt lat="48.5471" lon="1.93998">
        <ele>161</ele>
        <time>2023-04-06T07:31:40Z</time>
      </trkpt>
      <trkpt lat="48.54702" lon="1.94002">
        <ele>160.9</ele>
        <time>2023-04-06T07:31:47Z</time>
      </trkpt>
      <trkpt lat="48.54692" lon="1.94006">
        <ele>160.6</ele>
        <time>2023-04-06T07:31:54Z</time>
      </trkpt>
      <trkpt lat="48.54683" lon="1.94011">
        <ele>160</ele>
        <time>2023-04-06T07:32:00Z</time>
      </trkpt>
      <trkpt lat="48.54675" lon="1.94017">
        <ele>159.4</ele>
        <time>2023-04-06T07:32:06Z</time>
      </trkpt>
      <trkpt lat="48.54666" lon="1.94022">
        <ele>159</ele>
        <time>2023-04-06T07:32:12Z</time>
      </trkpt>
      <trkpt lat="48.54657" lon="1.94029">
        <ele>158.3</ele>
        <time>2023-04-06T07:32:19Z</time>
      </trkpt>
      <trkpt lat="48.54648" lon="1.94034">
        <ele>157.8</ele>
        <time>2023-04-06T07:32:26Z</time>
      </trkpt>
      <trkpt lat="48.54639" lon="1.94038">
        <ele>157.4</ele>
        <time>2023-04-06T07:32:34Z</time>
      </trkpt>
      <trkpt lat="48.5463" lon="1.94043">
        <ele>157</ele>
        <time>2023-04-06T07:32:41Z</time>
      </trkpt>
      <trkpt lat="48.54621" lon="1.94048">
        <ele>156.7</ele>
        <time>2023-04-06T07:32:47Z</time>
      </trkpt>
      <trkpt lat="48.54612" lon="1.94053">
        <ele>156.7</ele>
        <time>2023-04-06T07:32:54Z</time>
      </trkpt>
      <trkpt lat="48.54602" lon="1.94058">
        <ele>157.1</ele>
        <time>2023-04-06T07:33:02Z</time>
      </trkpt>
      <trkpt lat="48.54593" lon="1.94063">
        <ele>157.4</ele>
        <time>2023-04-06T07:33:08Z</time>
      </trkpt>
      <trkpt lat="48.54585" lon="1.94071">
        <ele>158.1</ele>
        <time>2023-04-06T07:33:14Z</time>
      </trkpt>
      <trkpt lat="48.54578" lon="1.94081">
        <ele>158.8</ele>
        <time>2023-04-06T07:34:08Z</time>
      </trkpt>
      <trkpt lat="48.5457" lon="1.9409">
        <ele>159.1</ele>
        <time>2023-04-06T07:34:16Z</time>
      </trkpt>
      <trkpt lat="48.54562" lon="1.94099">
        <ele>159.4</ele>
        <time>2023-04-06T07:34:24Z</time>
      </trkpt>
      <trkpt lat="48.54554" lon="1.94106">
        <ele>159.8</ele>
        <time>2023-04-06T07:34:31Z</time>
      </trkpt>
      <trkpt lat="48.54546" lon="1.94115">
        <ele>160</ele>
        <time>2023-04-06T07:34:39Z</time>
      </trkpt>
      <trkpt lat="48.54539" lon="1.94125">
        <ele>160</ele>
        <time>2023-04-06T07:34:46Z</time>
      </trkpt>
      <trkpt lat="48.54531" lon="1.94132">
        <ele>160</ele>
        <time>2023-04-06T07:34:52Z</time>
      </trkpt>
      <trkpt lat="48.54522" lon="1.94141">
        <ele>159.8</ele>
        <time>2023-04-06T07:35:00Z</time>
      </trkpt>
      <trkpt lat="48.54515" lon="1.9415">
        <ele>159.5</ele>
        <time>2023-04-06T07:35:06Z</time>
      </trkpt>
      <trkpt lat="48.54506" lon="1.94158">
        <ele>159.2</ele>
        <time>2023-04-06T07:35:13Z</time>
      </trkpt>
      <trkpt lat="48.54499" lon="1.94165">
        <ele>158.9</ele>
        <time>2023-04-06T07:35:19Z</time>
      </trkpt>
      <trkpt lat="48.5449" lon="1.94173">
        <ele>158.6</ele>
        <time>2023-04-06T07:35:26Z</time>
      </trkpt>
      <trkpt lat="48.54481" lon="1.9418">
        <ele>158.3</ele>
        <time>2023-04-06T07:35:33Z</time>
      </trkpt>
      <trkpt lat="48.54472" lon="1.94189">
        <ele>158</ele>
        <time>2023-04-06T07:35:41Z</time>
      </trkpt>
      <trkpt lat="48.54463" lon="1.94193">
        <ele>157.7</ele>
        <time>2023-04-06T07:35:47Z</time>
      </trkpt>
      <trkpt lat="48.54454" lon="1.94199">
        <ele>157.4</ele>
        <time>2023-04-06T07:35:53Z</time>
      </trkpt>
      <trkpt lat="48.54446" lon="1.94206">
        <ele>157.4</ele>
        <time>2023-04-06T07:36:00Z</time>
      </trkpt>
      <trkpt lat="48.54439" lon="1.94217">
        <ele>157.6</ele>
        <time>2023-04-06T07:36:08Z</time>
      </trkpt>
      <trkpt lat="48.54434" lon="1.94228">
        <ele>157.6</ele>
        <time>2023-04-06T07:36:15Z</time>
      </trkpt>
      <trkpt lat="48.54429" lon="1.94241">
        <ele>157.4</ele>
        <time>2023-04-06T07:36:21Z</time>
      </trkpt>
      <trkpt lat="48.54424" lon="1.94253">
        <ele>157.3</ele>
        <time>2023-04-06T07:36:28Z</time>
      </trkpt>
      <trkpt lat="48.54419" lon="1.94265">
        <ele>157.6</ele>
        <time>2023-04-06T07:36:35Z</time>
      </trkpt>
      <trkpt lat="48.54416" lon="1.9428">
        <ele>158</ele>
        <time>2023-04-06T07:36:41Z</time>
      </trkpt>
      <trkpt lat="48.54411" lon="1.94292">
        <ele>157.8</ele>
        <time>2023-04-06T07:36:47Z</time>
      </trkpt>
      <trkpt lat="48.54408" lon="1.94305">
        <ele>157.7</ele>
        <time>2023-04-06T07:36:53Z</time>
      </trkpt>
      <trkpt lat="48.54402" lon="1.94315">
        <ele>157.3</ele>
        <time>2023-04-06T07:37:00Z</time>
      </trkpt>
      <trkpt lat="48.54394" lon="1.94325">
        <ele>157.1</ele>
        <time>2023-04-06T07:37:10Z</time>
      </trkpt>
      <trkpt lat="48.54393" lon="1.9434">
        <ele>157</ele>
        <time>2023-04-06T07:37:18Z</time>
      </trkpt>
      <trkpt lat="48.54392" lon="1.94354">
        <ele>157</ele>
        <time>2023-04-06T07:37:25Z</time>
      </trkpt>
      <trkpt lat="48.5439" lon="1.94369">
        <ele>157</ele>
        <time>2023-04-06T07:37:32Z</time>
      </trkpt>
      <trkpt lat="48.54388" lon="1.94382">
        <ele>157</ele>
        <time>2023-04-06T07:37:38Z</time>
      </trkpt>
      <trkpt lat="48.54386" lon="1.94395">
        <ele>156.9</ele>
        <time>2023-04-06T07:37:44Z</time>
      </trkpt>
      <trkpt lat="48.5438" lon="1.94408">
        <ele>156.7</ele>
        <time>2023-04-06T07:37:51Z</time>
      </trkpt>
      <trkpt lat="48.54376" lon="1.94421">
        <ele>156.4</ele>
        <time>2023-04-06T07:37:58Z</time>
      </trkpt>
      <trkpt lat="48.54371" lon="1.94435">
        <ele>156.1</ele>
        <time>2023-04-06T07:38:06Z</time>
      </trkpt>
      <trkpt lat="48.54366" lon="1.94447">
        <ele>156</ele>
        <time>2023-04-06T07:38:13Z</time>
      </trkpt>
      <trkpt lat="48.5436" lon="1.9446">
        <ele>156</ele>
        <time>2023-04-06T07:38:21Z</time>
      </trkpt>
      <trkpt lat="48.54356" lon="1.94473">
        <ele>155.8</ele>
        <time>2023-04-06T07:38:28Z</time>
      </trkpt>
      <trkpt lat="48.54352" lon="1.94486">
        <ele>155.3</ele>
        <time>2023-04-06T07:38:34Z</time>
      </trkpt>
      <trkpt lat="48.54346" lon="1.94496">
        <ele>155.1</ele>
        <time>2023-04-06T07:38:41Z</time>
      </trkpt>
      <trkpt lat="48.54339" lon="1.94508">
        <ele>155</ele>
        <time>2023-04-06T07:38:49Z</time>
      </trkpt>
      <trkpt lat="48.54336" lon="1.94522">
        <ele>155</ele>
        <time>2023-04-06T07:38:57Z</time>
      </trkpt>
      <trkpt lat="48.54333" lon="1.94537">
        <ele>155</ele>
        <time>2023-04-06T07:39:03Z</time>
      </trkpt>
      <trkpt lat="48.54328" lon="1.94549">
        <ele>154.7</ele>
        <time>2023-04-06T07:39:09Z</time>
      </trkpt>
      <trkpt lat="48.54321" lon="1.94558">
        <ele>154</ele>
        <time>2023-04-06T07:39:16Z</time>
      </trkpt>
      <trkpt lat="48.54313" lon="1.94567">
        <ele>153.4</ele>
        <time>2023-04-06T07:39:22Z</time>
      </trkpt>
      <trkpt lat="48.54306" lon="1.94575">
        <ele>153</ele>
        <time>2023-04-06T07:39:28Z</time>
      </trkpt>
      <trkpt lat="48.54297" lon="1.94583">
        <ele>152.4</ele>
        <time>2023-04-06T07:39:35Z</time>
      </trkpt>
      <trkpt lat="48.5429" lon="1.94593">
        <ele>151.8</ele>
        <time>2023-04-06T07:39:42Z</time>
      </trkpt>
      <trkpt lat="48.54282" lon="1.946">
        <ele>151.2</ele>
        <time>2023-04-06T07:39:49Z</time>
      </trkpt>
      <trkpt lat="48.54274" lon="1.94607">
        <ele>150.7</ele>
        <time>2023-04-06T07:39:56Z</time>
      </trkpt>
      <trkpt lat="48.54265" lon="1.94616">
        <ele>149.9</ele>
        <time>2023-04-06T07:40:03Z</time>
      </trkpt>
      <trkpt lat="48.54256" lon="1.94623">
        <ele>149</ele>
        <time>2023-04-06T07:40:11Z</time>
      </trkpt>
      <trkpt lat="48.54248" lon="1.9463">
        <ele>148.2</ele>
        <time>2023-04-06T07:40:17Z</time>
      </trkpt>
      <trkpt lat="48.5424" lon="1.94638">
        <ele>147.3</ele>
        <time>2023-04-06T07:40:24Z</time>
      </trkpt>
      <trkpt lat="48.54234" lon="1.9465">
        <ele>146.2</ele>
        <time>2023-04-06T07:40:31Z</time>
      </trkpt>
      <trkpt lat="48.54226" lon="1.94659">
        <ele>144.9</ele>
        <time>2023-04-06T07:40:38Z</time>
      </trkpt>
      <trkpt lat="48.54219" lon="1.94667">
        <ele>143.6</ele>
        <time>2023-04-06T07:40:45Z</time>
      </trkpt>
      <trkpt lat="48.54212" lon="1.94679">
        <ele>142</ele>
        <time>2023-04-06T07:40:52Z</time>
      </trkpt>
      <trkpt lat="48.54218" lon="1.9469">
        <ele>141.9</ele>
        <time>2023-04-06T07:41:35Z</time>
      </trkpt>
      <trkpt lat="48.54226" lon="1.94697">
        <ele>142.1</ele>
        <time>2023-04-06T07:41:44Z</time>
      </trkpt>
      <trkpt lat="48.54235" lon="1.94702">
        <ele>142.4</ele>
        <time>2023-04-06T07:41:54Z</time>
      </trkpt>
      <trkpt lat="48.54244" lon="1.94707">
        <ele>142.7</ele>
        <time>2023-04-06T07:42:01Z</time>
      </trkpt>
      <trkpt lat="48.54253" lon="1.94713">
        <ele>143</ele>
        <time>2023-04-06T07:42:10Z</time>
      </trkpt>
      <trkpt lat="48.54262" lon="1.94719">
        <ele>143.5</ele>
        <time>2023-04-06T07:42:17Z</time>
      </trkpt>
      <trkpt lat="48.5427" lon="1.94725">
        <ele>144</ele>
        <time>2023-04-06T07:42:22Z</time>
      </trkpt>
      <trkpt lat="48.5428" lon="1.94731">
        <ele>144.4</ele>
        <time>2023-04-06T07:42:29Z</time>
      </trkpt>
      <trkpt lat="48.54289" lon="1.94736">
        <ele>144.4</ele>
        <time>2023-04-06T07:42:36Z</time>
      </trkpt>
      <trkpt lat="48.54298" lon="1.9474">
        <ele>144.4</ele>
        <time>2023-04-06T07:42:43Z</time>
      </trkpt>
      <trkpt lat="48.54306" lon="1.94747">
        <ele>144.2</ele>
        <time>2023-04-06T07:42:51Z</time>
      </trkpt>
      <trkpt lat="48.54313" lon="1.94756">
        <ele>143.8</ele>
        <time>2023-04-06T07:42:57Z</time>
      </trkpt>
      <trkpt lat="48.54321" lon="1.94767">
        <ele>143.3</ele>
        <time>2023-04-06T07:43:04Z</time>
      </trkpt>
      <trkpt lat="48.54325" lon="1.94779">
        <ele>142.6</ele>
        <time>2023-04-06T07:43:11Z</time>
      </trkpt>
      <trkpt lat="48.5433" lon="1.94791">
        <ele>141.9</ele>
        <time>2023-04-06T07:43:19Z</time>
      </trkpt>
      <trkpt lat="48.54332" lon="1.94806">
        <ele>140.9</ele>
        <time>2023-04-06T07:43:27Z</time>
      </trkpt>
      <trkpt lat="48.54335" lon="1.94821">
        <ele>139.9</ele>
        <time>2023-04-06T07:43:35Z</time>
      </trkpt>
      <trkpt lat="48.54337" lon="1.94835">
        <ele>138.9</ele>
        <time>2023-04-06T07:43:42Z</time>
      </trkpt>
      <trkpt lat="48.54337" lon="1.94849">
        <ele>137.9</ele>
        <time>2023-04-06T07:43:50Z</time>
      </trkpt>
      <trkpt lat="48.54346" lon="1.94852">
        <ele>137.7</ele>
        <time>2023-04-06T07:44:20Z</time>
      </trkpt>
      <trkpt lat="48.54355" lon="1.94857">
        <ele>137.3</ele>
        <time>2023-04-06T07:44:28Z</time>
      </trkpt>
      <trkpt lat="48.54364" lon="1.94862">
        <ele>137</ele>
        <time>2023-04-06T07:44:35Z</time>
      </trkpt>
      <trkpt lat="48.54372" lon="1.94867">
        <ele>136.9</ele>
        <time>2023-04-06T07:44:42Z</time>
      </trkpt>
      <trkpt lat="48.5438" lon="1.94875">
        <ele>136.8</ele>
        <time>2023-04-06T07:44:51Z</time>
      </trkpt>
      <trkpt lat="48.54389" lon="1.9488">
        <ele>137</ele>
        <time>2023-04-06T07:44:59Z</time>
      </trkpt>
      <trkpt lat="48.54391" lon="1.94894">
        <ele>137.2</ele>
        <time>2023-04-06T07:45:08Z</time>
      </trkpt>
      <trkpt lat="48.54381" lon="1.94894">
        <ele>136.9</ele>
        <time>2023-04-06T07:45:17Z</time>
      </trkpt>
      <trkpt lat="48.54371" lon="1.94894">
        <ele>136.6</ele>
        <time>2023-04-06T07:45:24Z</time>
      </trkpt>
      <trkpt lat="48.54361" lon="1.94898">
        <ele>136.3</ele>
        <time>2023-04-06T07:45:31Z</time>
      </trkpt>
      <trkpt lat="48.54352" lon="1.94899">
        <ele>136.3</ele>
        <time>2023-04-06T07:45:39Z</time>
      </trkpt>
      <trkpt lat="48.54343" lon="1.94905">
        <ele>136.2</ele>
        <time>2023-04-06T07:45:46Z</time>
      </trkpt>
      <trkpt lat="48.54335" lon="1.94913">
        <ele>136.1</ele>
        <time>2023-04-06T07:45:52Z</time>
      </trkpt>
      <trkpt lat="48.54328" lon="1.94922">
        <ele>135.8</ele>
        <time>2023-04-06T07:45:59Z</time>
      </trkpt>
      <trkpt lat="48.5432" lon="1.9493">
        <ele>135.5</ele>
        <time>2023-04-06T07:46:07Z</time>
      </trkpt>
      <trkpt lat="48.54313" lon="1.94939">
        <ele>135.3</ele>
        <time>2023-04-06T07:46:16Z</time>
      </trkpt>
      <trkpt lat="48.54304" lon="1.94946">
        <ele>135.1</ele>
        <time>2023-04-06T07:46:24Z</time>
      </trkpt>
      <trkpt lat="48.54294" lon="1.9495">
        <ele>135.2</ele>
        <time>2023-04-06T07:46:31Z</time>
      </trkpt>
      <trkpt lat="48.54285" lon="1.94955">
        <ele>135.4</ele>
        <time>2023-04-06T07:46:39Z</time>
      </trkpt>
      <trkpt lat="48.54275" lon="1.94952">
        <ele>134.8</ele>
        <time>2023-04-06T07:46:47Z</time>
      </trkpt>
      <trkpt lat="48.54266" lon="1.94953">
        <ele>134.8</ele>
        <time>2023-04-06T07:46:55Z</time>
      </trkpt>
      <trkpt lat="48.54256" lon="1.94956">
        <ele>134.9</ele>
        <time>2023-04-06T07:47:01Z</time>
      </trkpt>
      <trkpt lat="48.54246" lon="1.94957">
        <ele>134.8</ele>
        <time>2023-04-06T07:47:09Z</time>
      </trkpt>
      <trkpt lat="48.54236" lon="1.94956">
        <ele>134.6</ele>
        <time>2023-04-06T07:47:15Z</time>
      </trkpt>
      <trkpt lat="48.54228" lon="1.94953">
        <ele>134.1</ele>
        <time>2023-04-06T07:47:23Z</time>
      </trkpt>
      <trkpt lat="48.54218" lon="1.94949">
        <ele>133.5</ele>
        <time>2023-04-06T07:47:31Z</time>
      </trkpt>
      <trkpt lat="48.54209" lon="1.94944">
        <ele>133</ele>
        <time>2023-04-06T07:47:37Z</time>
      </trkpt>
      <trkpt lat="48.54199" lon="1.94945">
        <ele>133.1</ele>
        <time>2023-04-06T07:47:47Z</time>
      </trkpt>
      <trkpt lat="48.54189" lon="1.94945">
        <ele>133.1</ele>
        <time>2023-04-06T07:47:53Z</time>
      </trkpt>
      <trkpt lat="48.54178" lon="1.94944">
        <ele>133</ele>
        <time>2023-04-06T07:48:00Z</time>
      </trkpt>
      <trkpt lat="48.54168" lon="1.94944">
        <ele>133</ele>
        <time>2023-04-06T07:48:06Z</time>
      </trkpt>
      <trkpt lat="48.54158" lon="1.94942">
        <ele>132.5</ele>
        <time>2023-04-06T07:48:12Z</time>
      </trkpt>
      <trkpt lat="48.54148" lon="1.9494">
        <ele>132</ele>
        <time>2023-04-06T07:48:17Z</time>
      </trkpt>
      <trkpt lat="48.54138" lon="1.94939">
        <ele>131.6</ele>
        <time>2023-04-06T07:48:23Z</time>
      </trkpt>
      <trkpt lat="48.54129" lon="1.9494">
        <ele>131.4</ele>
        <time>2023-04-06T07:48:29Z</time>
      </trkpt>
      <trkpt lat="48.54119" lon="1.94938">
        <ele>131</ele>
        <time>2023-04-06T07:48:37Z</time>
      </trkpt>
      <trkpt lat="48.54109" lon="1.94937">
        <ele>130.7</ele>
        <time>2023-04-06T07:48:44Z</time>
      </trkpt>
      <trkpt lat="48.54099" lon="1.94938">
        <ele>130.4</ele>
        <time>2023-04-06T07:48:50Z</time>
      </trkpt>
      <trkpt lat="48.54089" lon="1.94939">
        <ele>130.2</ele>
        <time>2023-04-06T07:48:57Z</time>
      </trkpt>
      <trkpt lat="48.54081" lon="1.94947">
        <ele>130</ele>
        <time>2023-04-06T07:49:07Z</time>
      </trkpt>
      <trkpt lat="48.54077" lon="1.94959">
        <ele>130.2</ele>
        <time>2023-04-06T07:49:14Z</time>
      </trkpt>
      <trkpt lat="48.54072" lon="1.94972">
        <ele>130.2</ele>
        <time>2023-04-06T07:49:22Z</time>
      </trkpt>
      <trkpt lat="48.54068" lon="1.94985">
        <ele>129.8</ele>
        <time>2023-04-06T07:49:29Z</time>
      </trkpt>
      <trkpt lat="48.54066" lon="1.95">
        <ele>129.5</ele>
        <time>2023-04-06T07:49:37Z</time>
      </trkpt>
      <trkpt lat="48.54067" lon="1.95014">
        <ele>129.5</ele>
        <time>2023-04-06T07:49:46Z</time>
      </trkpt>
      <trkpt lat="48.54067" lon="1.95028">
        <ele>129.4</ele>
        <time>2023-04-06T07:49:54Z</time>
      </trkpt>
      <trkpt lat="48.54071" lon="1.95041">
        <ele>129.8</ele>
        <time>2023-04-06T07:50:01Z</time>
      </trkpt>
      <trkpt lat="48.54072" lon="1.95056">
        <ele>129.6</ele>
        <time>2023-04-06T07:50:09Z</time>
      </trkpt>
      <trkpt lat="48.54074" lon="1.9507">
        <ele>129.1</ele>
        <time>2023-04-06T07:50:17Z</time>
      </trkpt>
      <trkpt lat="48.54076" lon="1.95084">
        <ele>128.7</ele>
        <time>2023-04-06T07:50:25Z</time>
      </trkpt>
      <trkpt lat="48.54076" lon="1.95098">
        <ele>129</ele>
        <time>2023-04-06T07:50:33Z</time>
      </trkpt>
      <trkpt lat="48.54068" lon="1.95107">
        <ele>127.5</ele>
        <time>2023-04-06T07:50:40Z</time>
      </trkpt>
      <trkpt lat="48.54061" lon="1.95117">
        <ele>127</ele>
        <time>2023-04-06T07:50:46Z</time>
      </trkpt>
      <trkpt lat="48.54056" lon="1.95129">
        <ele>127.6</ele>
        <time>2023-04-06T07:50:54Z</time>
      </trkpt>
      <trkpt lat="48.5405" lon="1.9514">
        <ele>128.3</ele>
        <time>2023-04-06T07:51:01Z</time>
      </trkpt>
      <trkpt lat="48.5404" lon="1.95146">
        <ele>127.6</ele>
        <time>2023-04-06T07:51:07Z</time>
      </trkpt>
      <trkpt lat="48.54031" lon="1.95154">
        <ele>126.7</ele>
        <time>2023-04-06T07:51:13Z</time>
      </trkpt>
      <trkpt lat="48.54024" lon="1.95166">
        <ele>126.5</ele>
        <time>2023-04-06T07:51:19Z</time>
      </trkpt>
      <trkpt lat="48.54017" lon="1.95175">
        <ele>126.4</ele>
        <time>2023-04-06T07:51:26Z</time>
      </trkpt>
      <trkpt lat="48.54013" lon="1.95188">
        <ele>126.6</ele>
        <time>2023-04-06T07:51:35Z</time>
      </trkpt>
      <trkpt lat="48.5401" lon="1.95203">
        <ele>126.6</ele>
        <time>2023-04-06T07:51:43Z</time>
      </trkpt>
      <trkpt lat="48.54005" lon="1.95215">
        <ele>125.9</ele>
        <time>2023-04-06T07:51:50Z</time>
      </trkpt>
      <trkpt lat="48.54" lon="1.95226">
        <ele>125.3</ele>
        <time>2023-04-06T07:51:59Z</time>
      </trkpt>
      <trkpt lat="48.53993" lon="1.95236">
        <ele>125.5</ele>
        <time>2023-04-06T07:52:08Z</time>
      </trkpt>
      <trkpt lat="48.53985" lon="1.95243">
        <ele>125.4</ele>
        <time>2023-04-06T07:52:16Z</time>
      </trkpt>
      <trkpt lat="48.53976" lon="1.95249">
        <ele>125.2</ele>
        <time>2023-04-06T07:52:24Z</time>
      </trkpt>
      <trkpt lat="48.53967" lon="1.95252">
        <ele>125.7</ele>
        <time>2023-04-06T07:52:30Z</time>
      </trkpt>
      <trkpt lat="48.53957" lon="1.95249">
        <ele>126</ele>
        <time>2023-04-06T07:52:37Z</time>
      </trkpt>
      <trkpt lat="48.53947" lon="1.95243">
        <ele>126.1</ele>
        <time>2023-04-06T07:52:44Z</time>
      </trkpt>
      <trkpt lat="48.53939" lon="1.95238">
        <ele>126.7</ele>
        <time>2023-04-06T07:52:49Z</time>
      </trkpt>
      <trkpt lat="48.53932" lon="1.95226">
        <ele>126.4</ele>
        <time>2023-04-06T07:52:55Z</time>
      </trkpt>
      <trkpt lat="48.53925" lon="1.95214">
        <ele>125.8</ele>
        <time>2023-04-06T07:53:01Z</time>
      </trkpt>
      <trkpt lat="48.53918" lon="1.95205">
        <ele>125.3</ele>
        <time>2023-04-06T07:53:07Z</time>
      </trkpt>
      <trkpt lat="48.53912" lon="1.95193">
        <ele>123.9</ele>
        <time>2023-04-06T07:53:16Z</time>
      </trkpt>
      <trkpt lat="48.53905" lon="1.95184">
        <ele>123.1</ele>
        <time>2023-04-06T07:53:23Z</time>
      </trkpt>
      <trkpt lat="48.53897" lon="1.95175">
        <ele>122.1</ele>
        <time>2023-04-06T07:54:41Z</time>
      </trkpt>
      <trkpt lat="48.5389" lon="1.95165">
        <ele>121</ele>
        <time>2023-04-06T07:54:49Z</time>
      </trkpt>
      <trkpt lat="48.53898" lon="1.95174">
        <ele>122.1</ele>
        <time>2023-04-06T07:55:15Z</time>
      </trkpt>
      <trkpt lat="48.53892" lon="1.95186">
        <ele>123.1</ele>
        <time>2023-04-06T07:55:26Z</time>
      </trkpt>
      <trkpt lat="48.53883" lon="1.95193">
        <ele>123.2</ele>
        <time>2023-04-06T07:55:33Z</time>
      </trkpt>
      <trkpt lat="48.53876" lon="1.95205">
        <ele>124.7</ele>
        <time>2023-04-06T07:55:41Z</time>
      </trkpt>
      <trkpt lat="48.5387" lon="1.95217">
        <ele>126.3</ele>
        <time>2023-04-06T07:55:49Z</time>
      </trkpt>
      <trkpt lat="48.53867" lon="1.9523">
        <ele>128.4</ele>
        <time>2023-04-06T07:55:57Z</time>
      </trkpt>
      <trkpt lat="48.53865" lon="1.95244">
        <ele>131.3</ele>
        <time>2023-04-06T07:56:04Z</time>
      </trkpt>
      <trkpt lat="48.53859" lon="1.95253">
        <ele>132.2</ele>
        <time>2023-04-06T07:56:11Z</time>
      </trkpt>
      <trkpt lat="48.53854" lon="1.95267">
        <ele>134</ele>
        <time>2023-04-06T07:56:19Z</time>
      </trkpt>
      <trkpt lat="48.53854" lon="1.95282">
        <ele>136.2</ele>
        <time>2023-04-06T07:56:26Z</time>
      </trkpt>
      <trkpt lat="48.53846" lon="1.9529">
        <ele>134.6</ele>
        <time>2023-04-06T07:56:33Z</time>
      </trkpt>
      <trkpt lat="48.53847" lon="1.95305">
        <ele>135.9</ele>
        <time>2023-04-06T07:56:40Z</time>
      </trkpt>
      <trkpt lat="48.53847" lon="1.95319">
        <ele>135.8</ele>
        <time>2023-04-06T07:56:47Z</time>
      </trkpt>
      <trkpt lat="48.53849" lon="1.95332">
        <ele>136.6</ele>
        <time>2023-04-06T07:56:54Z</time>
      </trkpt>
      <trkpt lat="48.53854" lon="1.95346">
        <ele>137.6</ele>
        <time>2023-04-06T07:57:02Z</time>
      </trkpt>
      <trkpt lat="48.5386" lon="1.95356">
        <ele>139</ele>
        <time>2023-04-06T07:57:09Z</time>
      </trkpt>
      <trkpt lat="48.53863" lon="1.95369">
        <ele>139.5</ele>
        <time>2023-04-06T07:57:16Z</time>
      </trkpt>
      <trkpt lat="48.53867" lon="1.95383">
        <ele>140.4</ele>
        <time>2023-04-06T07:57:23Z</time>
      </trkpt>
      <trkpt lat="48.53864" lon="1.95397">
        <ele>140.6</ele>
        <time>2023-04-06T07:57:31Z</time>
      </trkpt>
      <trkpt lat="48.53862" lon="1.9541">
        <ele>141.5</ele>
        <time>2023-04-06T07:57:38Z</time>
      </trkpt>
      <trkpt lat="48.53854" lon="1.95417">
        <ele>141.3</ele>
        <time>2023-04-06T07:57:46Z</time>
      </trkpt>
      <trkpt lat="48.53846" lon="1.95425">
        <ele>141.8</ele>
        <time>2023-04-06T07:57:54Z</time>
      </trkpt>
      <trkpt lat="48.53836" lon="1.9543">
        <ele>141.6</ele>
        <time>2023-04-06T07:58:01Z</time>
      </trkpt>
      <trkpt lat="48.53827" lon="1.95434">
        <ele>142.1</ele>
        <time>2023-04-06T07:58:08Z</time>
      </trkpt>
      <trkpt lat="48.53818" lon="1.95438">
        <ele>142.8</ele>
        <time>2023-04-06T07:58:14Z</time>
      </trkpt>
      <trkpt lat="48.53809" lon="1.95438">
        <ele>142.9</ele>
        <time>2023-04-06T07:58:20Z</time>
      </trkpt>
      <trkpt lat="48.53799" lon="1.9544">
        <ele>142.5</ele>
        <time>2023-04-06T07:58:27Z</time>
      </trkpt>
      <trkpt lat="48.5379" lon="1.95444">
        <ele>142.2</ele>
        <time>2023-04-06T07:58:32Z</time>
      </trkpt>
      <trkpt lat="48.53782" lon="1.95452">
        <ele>142.3</ele>
        <time>2023-04-06T07:58:39Z</time>
      </trkpt>
      <trkpt lat="48.53776" lon="1.95463">
        <ele>142.8</ele>
        <time>2023-04-06T07:58:46Z</time>
      </trkpt>
      <trkpt lat="48.53771" lon="1.95475">
        <ele>143.3</ele>
        <time>2023-04-06T07:58:53Z</time>
      </trkpt>
      <trkpt lat="48.53766" lon="1.95488">
        <ele>144</ele>
        <time>2023-04-06T07:59:00Z</time>
      </trkpt>
      <trkpt lat="48.53761" lon="1.955">
        <ele>144.6</ele>
        <time>2023-04-06T07:59:07Z</time>
      </trkpt>
      <trkpt lat="48.53756" lon="1.95514">
        <ele>144.9</ele>
        <time>2023-04-06T07:59:14Z</time>
      </trkpt>
      <trkpt lat="48.5375" lon="1.95525">
        <ele>144.9</ele>
        <time>2023-04-06T07:59:21Z</time>
      </trkpt>
      <trkpt lat="48.53746" lon="1.95538">
        <ele>144.1</ele>
        <time>2023-04-06T07:59:27Z</time>
      </trkpt>
      <trkpt lat="48.53745" lon="1.95551">
        <ele>143.9</ele>
        <time>2023-04-06T07:59:33Z</time>
      </trkpt>
      <trkpt lat="48.53743" lon="1.95566">
        <ele>143.5</ele>
        <time>2023-04-06T07:59:40Z</time>
      </trkpt>
      <trkpt lat="48.53744" lon="1.95582">
        <ele>143.5</ele>
        <time>2023-04-06T07:59:47Z</time>
      </trkpt>
      <trkpt lat="48.53745" lon="1.95597">
        <ele>143.8</ele>
        <time>2023-04-06T07:59:54Z</time>
      </trkpt>
      <trkpt lat="48.53745" lon="1.95611">
        <ele>143.8</ele>
        <time>2023-04-06T08:00:01Z</time>
      </trkpt>
      <trkpt lat="48.53743" lon="1.95627">
        <ele>143.3</ele>
        <time>2023-04-06T08:00:08Z</time>
      </trkpt>
      <trkpt lat="48.53741" lon="1.9564">
        <ele>142.9</ele>
        <time>2023-04-06T08:00:14Z</time>
      </trkpt>
      <trkpt lat="48.53744" lon="1.95655">
        <ele>144.3</ele>
        <time>2023-04-06T08:00:21Z</time>
      </trkpt>
      <trkpt lat="48.5374" lon="1.95667">
        <ele>143.9</ele>
        <time>2023-04-06T08:02:50Z</time>
      </trkpt>
      <trkpt lat="48.53737" lon="1.95681">
        <ele>143.9</ele>
        <time>2023-04-06T08:02:59Z</time>
      </trkpt>
      <trkpt lat="48.53733" lon="1.95694">
        <ele>143.9</ele>
        <time>2023-04-06T08:03:10Z</time>
      </trkpt>
      <trkpt lat="48.53729" lon="1.95707">
        <ele>144.3</ele>
        <time>2023-04-06T08:03:18Z</time>
      </trkpt>
      <trkpt lat="48.53721" lon="1.95716">
        <ele>144.3</ele>
        <time>2023-04-06T08:03:27Z</time>
      </trkpt>
      <trkpt lat="48.53713" lon="1.95721">
        <ele>144.2</ele>
        <time>2023-04-06T08:03:34Z</time>
      </trkpt>
      <trkpt lat="48.53704" lon="1.95725">
        <ele>143.9</ele>
        <time>2023-04-06T08:03:41Z</time>
      </trkpt>
      <trkpt lat="48.53695" lon="1.95729">
        <ele>143.8</ele>
        <time>2023-04-06T08:03:49Z</time>
      </trkpt>
      <trkpt lat="48.53685" lon="1.95732">
        <ele>143.4</ele>
        <time>2023-04-06T08:03:56Z</time>
      </trkpt>
      <trkpt lat="48.53676" lon="1.95735">
        <ele>143</ele>
        <time>2023-04-06T08:04:03Z</time>
      </trkpt>
      <trkpt lat="48.53666" lon="1.95739">
        <ele>142.7</ele>
        <time>2023-04-06T08:04:10Z</time>
      </trkpt>
      <trkpt lat="48.53659" lon="1.9575">
        <ele>142.7</ele>
        <time>2023-04-06T08:04:18Z</time>
      </trkpt>
      <trkpt lat="48.53656" lon="1.95764">
        <ele>143.2</ele>
        <time>2023-04-06T08:04:25Z</time>
      </trkpt>
      <trkpt lat="48.53654" lon="1.95778">
        <ele>143.8</ele>
        <time>2023-04-06T08:04:33Z</time>
      </trkpt>
      <trkpt lat="48.53652" lon="1.95793">
        <ele>144.2</ele>
        <time>2023-04-06T08:04:40Z</time>
      </trkpt>
      <trkpt lat="48.53649" lon="1.95808">
        <ele>144.6</ele>
        <time>2023-04-06T08:04:47Z</time>
      </trkpt>
      <trkpt lat="48.53644" lon="1.9582">
        <ele>144.8</ele>
        <time>2023-04-06T08:04:54Z</time>
      </trkpt>
      <trkpt lat="48.53641" lon="1.95834">
        <ele>145.4</ele>
        <time>2023-04-06T08:05:01Z</time>
      </trkpt>
      <trkpt lat="48.53638" lon="1.95848">
        <ele>145.9</ele>
        <time>2023-04-06T08:05:09Z</time>
      </trkpt>
      <trkpt lat="48.53636" lon="1.95863">
        <ele>146.5</ele>
        <time>2023-04-06T08:05:16Z</time>
      </trkpt>
      <trkpt lat="48.53633" lon="1.95876">
        <ele>146.5</ele>
        <time>2023-04-06T08:05:24Z</time>
      </trkpt>
      <trkpt lat="48.53628" lon="1.95889">
        <ele>146.4</ele>
        <time>2023-04-06T08:05:31Z</time>
      </trkpt>
      <trkpt lat="48.53623" lon="1.95901">
        <ele>146.2</ele>
        <time>2023-04-06T08:05:38Z</time>
      </trkpt>
      <trkpt lat="48.5362" lon="1.95914">
        <ele>146.2</ele>
        <time>2023-04-06T08:05:44Z</time>
      </trkpt>
      <trkpt lat="48.53615" lon="1.95926">
        <ele>145.9</ele>
        <time>2023-04-06T08:05:50Z</time>
      </trkpt>
      <trkpt lat="48.53609" lon="1.95936">
        <ele>145.1</ele>
        <time>2023-04-06T08:05:56Z</time>
      </trkpt>
      <trkpt lat="48.53602" lon="1.95946">
        <ele>143.9</ele>
        <time>2023-04-06T08:06:03Z</time>
      </trkpt>
      <trkpt lat="48.53596" lon="1.95957">
        <ele>143.1</ele>
        <time>2023-04-06T08:06:09Z</time>
      </trkpt>
      <trkpt lat="48.53592" lon="1.95969">
        <ele>143</ele>
        <time>2023-04-06T08:06:15Z</time>
      </trkpt>
      <trkpt lat="48.53587" lon="1.95982">
        <ele>142.9</ele>
        <time>2023-04-06T08:06:22Z</time>
      </trkpt>
      <trkpt lat="48.53582" lon="1.95993">
        <ele>142.8</ele>
        <time>2023-04-06T08:06:30Z</time>
      </trkpt>
      <trkpt lat="48.53574" lon="1.96004">
        <ele>142.1</ele>
        <time>2023-04-06T08:06:38Z</time>
      </trkpt>
      <trkpt lat="48.53565" lon="1.96012">
        <ele>140.8</ele>
        <time>2023-04-06T08:06:45Z</time>
      </trkpt>
      <trkpt lat="48.53558" lon="1.96021">
        <ele>140.5</ele>
        <time>2023-04-06T08:06:52Z</time>
      </trkpt>
      <trkpt lat="48.53552" lon="1.96034">
        <ele>141</ele>
        <time>2023-04-06T08:06:59Z</time>
      </trkpt>
      <trkpt lat="48.53545" lon="1.96042">
        <ele>141</ele>
        <time>2023-04-06T08:07:05Z</time>
      </trkpt>
      <trkpt lat="48.53538" lon="1.96051">
        <ele>141.4</ele>
        <time>2023-04-06T08:07:11Z</time>
      </trkpt>
      <trkpt lat="48.5353" lon="1.96061">
        <ele>141.8</ele>
        <time>2023-04-06T08:07:18Z</time>
      </trkpt>
      <trkpt lat="48.53521" lon="1.9607">
        <ele>141.4</ele>
        <time>2023-04-06T08:07:26Z</time>
      </trkpt>
      <trkpt lat="48.53519" lon="1.96084">
        <ele>142.4</ele>
        <time>2023-04-06T08:07:36Z</time>
      </trkpt>
      <trkpt lat="48.53522" lon="1.96098">
        <ele>143.4</ele>
        <time>2023-04-06T08:07:44Z</time>
      </trkpt>
      <trkpt lat="48.53524" lon="1.96113">
        <ele>144.1</ele>
        <time>2023-04-06T08:07:52Z</time>
      </trkpt>
      <trkpt lat="48.53523" lon="1.96129">
        <ele>143.8</ele>
        <time>2023-04-06T08:08:00Z</time>
      </trkpt>
      <trkpt lat="48.53522" lon="1.96144">
        <ele>143.5</ele>
        <time>2023-04-06T08:08:08Z</time>
      </trkpt>
      <trkpt lat="48.5352" lon="1.96159">
        <ele>142.8</ele>
        <time>2023-04-06T08:08:16Z</time>
      </trkpt>
      <trkpt lat="48.53519" lon="1.96174">
        <ele>142.3</ele>
        <time>2023-04-06T08:08:24Z</time>
      </trkpt>
      <trkpt lat="48.5352" lon="1.96188">
        <ele>142.5</ele>
        <time>2023-04-06T08:08:30Z</time>
      </trkpt>
      <trkpt lat="48.53518" lon="1.96201">
        <ele>142</ele>
        <time>2023-04-06T08:08:36Z</time>
      </trkpt>
      <trkpt lat="48.53514" lon="1.96215">
        <ele>141.3</ele>
        <time>2023-04-06T08:08:43Z</time>
      </trkpt>
      <trkpt lat="48.5351" lon="1.96229">
        <ele>140.8</ele>
        <time>2023-04-06T08:08:49Z</time>
      </trkpt>
      <trkpt lat="48.53506" lon="1.96243">
        <ele>140.9</ele>
        <time>2023-04-06T08:08:56Z</time>
      </trkpt>
      <trkpt lat="48.53501" lon="1.96256">
        <ele>141.2</ele>
        <time>2023-04-06T08:09:04Z</time>
      </trkpt>
      <trkpt lat="48.53496" lon="1.96269">
        <ele>141.4</ele>
        <time>2023-04-06T08:09:11Z</time>
      </trkpt>
      <trkpt lat="48.53492" lon="1.96283">
        <ele>142.1</ele>
        <time>2023-04-06T08:09:18Z</time>
      </trkpt>
      <trkpt lat="48.53486" lon="1.96294">
        <ele>141.9</ele>
        <time>2023-04-06T08:09:26Z</time>
      </trkpt>
      <trkpt lat="48.53479" lon="1.96306">
        <ele>142.6</ele>
        <time>2023-04-06T08:09:34Z</time>
      </trkpt>
      <trkpt lat="48.53474" lon="1.96319">
        <ele>143.7</ele>
        <time>2023-04-06T08:09:42Z</time>
      </trkpt>
      <trkpt lat="48.5347" lon="1.96332">
        <ele>145.1</ele>
        <time>2023-04-06T08:09:50Z</time>
      </trkpt>
      <trkpt lat="48.53466" lon="1.96345">
        <ele>145.9</ele>
        <time>2023-04-06T08:09:58Z</time>
      </trkpt>
      <trkpt lat="48.53462" lon="1.96359">
        <ele>146.9</ele>
        <time>2023-04-06T08:10:05Z</time>
      </trkpt>
      <trkpt lat="48.53455" lon="1.96369">
        <ele>146.6</ele>
        <time>2023-04-06T08:10:11Z</time>
      </trkpt>
      <trkpt lat="48.53448" lon="1.96381">
        <ele>146.7</ele>
        <time>2023-04-06T08:10:18Z</time>
      </trkpt>
      <trkpt lat="48.53444" lon="1.96393">
        <ele>147.1</ele>
        <time>2023-04-06T08:10:24Z</time>
      </trkpt>
      <trkpt lat="48.53439" lon="1.96406">
        <ele>146.7</ele>
        <time>2023-04-06T08:10:32Z</time>
      </trkpt>
      <trkpt lat="48.53433" lon="1.96418">
        <ele>146.4</ele>
        <time>2023-04-06T08:10:39Z</time>
      </trkpt>
      <trkpt lat="48.53428" lon="1.9643">
        <ele>146.5</ele>
        <time>2023-04-06T08:10:46Z</time>
      </trkpt>
      <trkpt lat="48.53423" lon="1.96442">
        <ele>146.7</ele>
        <time>2023-04-06T08:10:52Z</time>
      </trkpt>
      <trkpt lat="48.53417" lon="1.96454">
        <ele>146.5</ele>
        <time>2023-04-06T08:10:59Z</time>
      </trkpt>
      <trkpt lat="48.53414" lon="1.96468">
        <ele>146.3</ele>
        <time>2023-04-06T08:11:05Z</time>
      </trkpt>
      <trkpt lat="48.53412" lon="1.96483">
        <ele>146.5</ele>
        <time>2023-04-06T08:11:11Z</time>
      </trkpt>
      <trkpt lat="48.53408" lon="1.96497">
        <ele>146.4</ele>
        <time>2023-04-06T08:11:18Z</time>
      </trkpt>
      <trkpt lat="48.53404" lon="1.9651">
        <ele>145.8</ele>
        <time>2023-04-06T08:11:25Z</time>
      </trkpt>
      <trkpt lat="48.53401" lon="1.96523">
        <ele>145.3</ele>
        <time>2023-04-06T08:11:30Z</time>
      </trkpt>
      <trkpt lat="48.53399" lon="1.96537">
        <ele>145.2</ele>
        <time>2023-04-06T08:11:36Z</time>
      </trkpt>
      <trkpt lat="48.53393" lon="1.96548">
        <ele>144.4</ele>
        <time>2023-04-06T08:11:44Z</time>
      </trkpt>
      <trkpt lat="48.53387" lon="1.9656">
        <ele>143.4</ele>
        <time>2023-04-06T08:11:53Z</time>
      </trkpt>
      <trkpt lat="48.53384" lon="1.96574">
        <ele>142.5</ele>
        <time>2023-04-06T08:12:00Z</time>
      </trkpt>
      <trkpt lat="48.53381" lon="1.96587">
        <ele>141.8</ele>
        <time>2023-04-06T08:12:06Z</time>
      </trkpt>
      <trkpt lat="48.53378" lon="1.96601">
        <ele>141.7</ele>
        <time>2023-04-06T08:12:13Z</time>
      </trkpt>
      <trkpt lat="48.53376" lon="1.96615">
        <ele>142.1</ele>
        <time>2023-04-06T08:12:20Z</time>
      </trkpt>
      <trkpt lat="48.53373" lon="1.96628">
        <ele>142.3</ele>
        <time>2023-04-06T08:12:26Z</time>
      </trkpt>
      <trkpt lat="48.53367" lon="1.96641">
        <ele>141.8</ele>
        <time>2023-04-06T08:12:33Z</time>
      </trkpt>
      <trkpt lat="48.53362" lon="1.96654">
        <ele>141.9</ele>
        <time>2023-04-06T08:12:40Z</time>
      </trkpt>
      <trkpt lat="48.53356" lon="1.96665">
        <ele>141.6</ele>
        <time>2023-04-06T08:12:48Z</time>
      </trkpt>
      <trkpt lat="48.53349" lon="1.96677">
        <ele>141.5</ele>
        <time>2023-04-06T08:12:55Z</time>
      </trkpt>
      <trkpt lat="48.53342" lon="1.96686">
        <ele>141.2</ele>
        <time>2023-04-06T08:13:01Z</time>
      </trkpt>
      <trkpt lat="48.53334" lon="1.96697">
        <ele>141.4</ele>
        <time>2023-04-06T08:13:09Z</time>
      </trkpt>
      <trkpt lat="48.53329" lon="1.96707">
        <ele>141.4</ele>
        <time>2023-04-06T08:13:15Z</time>
      </trkpt>
      <trkpt lat="48.53323" lon="1.96718">
        <ele>141.2</ele>
        <time>2023-04-06T08:13:22Z</time>
      </trkpt>
      <trkpt lat="48.53316" lon="1.96729">
        <ele>141</ele>
        <time>2023-04-06T08:13:30Z</time>
      </trkpt>
      <trkpt lat="48.53311" lon="1.9674">
        <ele>141.5</ele>
        <time>2023-04-06T08:13:36Z</time>
      </trkpt>
      <trkpt lat="48.53307" lon="1.96754">
        <ele>142.5</ele>
        <time>2023-04-06T08:13:43Z</time>
      </trkpt>
      <trkpt lat="48.5331" lon="1.96769">
        <ele>143.9</ele>
        <time>2023-04-06T08:13:49Z</time>
      </trkpt>
      <trkpt lat="48.53314" lon="1.96781">
        <ele>145.1</ele>
        <time>2023-04-06T08:13:56Z</time>
      </trkpt>
      <trkpt lat="48.53319" lon="1.96792">
        <ele>146.3</ele>
        <time>2023-04-06T08:14:03Z</time>
      </trkpt>
      <trkpt lat="48.53326" lon="1.96801">
        <ele>147.3</ele>
        <time>2023-04-06T08:14:10Z</time>
      </trkpt>
      <trkpt lat="48.53334" lon="1.96809">
        <ele>148</ele>
        <time>2023-04-06T08:14:17Z</time>
      </trkpt>
      <trkpt lat="48.53337" lon="1.96823">
        <ele>148.1</ele>
        <time>2023-04-06T08:16:28Z</time>
      </trkpt>
      <trkpt lat="48.53344" lon="1.96832">
        <ele>148.4</ele>
        <time>2023-04-06T08:16:38Z</time>
      </trkpt>
      <trkpt lat="48.53348" lon="1.96844">
        <ele>148.5</ele>
        <time>2023-04-06T08:16:46Z</time>
      </trkpt>
      <trkpt lat="48.53355" lon="1.96854">
        <ele>148.8</ele>
        <time>2023-04-06T08:16:53Z</time>
      </trkpt>
      <trkpt lat="48.53358" lon="1.96868">
        <ele>148.7</ele>
        <time>2023-04-06T08:17:02Z</time>
      </trkpt>
      <trkpt lat="48.53361" lon="1.96882">
        <ele>148.2</ele>
        <time>2023-04-06T08:17:10Z</time>
      </trkpt>
      <trkpt lat="48.53357" lon="1.96895">
        <ele>148</ele>
        <time>2023-04-06T08:17:17Z</time>
      </trkpt>
      <trkpt lat="48.53356" lon="1.96909">
        <ele>147.9</ele>
        <time>2023-04-06T08:17:25Z</time>
      </trkpt>
      <trkpt lat="48.53362" lon="1.96921">
        <ele>147.8</ele>
        <time>2023-04-06T08:17:33Z</time>
      </trkpt>
      <trkpt lat="48.53371" lon="1.96927">
        <ele>147.8</ele>
        <time>2023-04-06T08:17:40Z</time>
      </trkpt>
      <trkpt lat="48.5338" lon="1.9693">
        <ele>147.9</ele>
        <time>2023-04-06T08:17:47Z</time>
      </trkpt>
      <trkpt lat="48.5339" lon="1.96934">
        <ele>148</ele>
        <time>2023-04-06T08:17:55Z</time>
      </trkpt>
      <trkpt lat="48.53399" lon="1.96939">
        <ele>148.1</ele>
        <time>2023-04-06T08:18:02Z</time>
      </trkpt>
      <trkpt lat="48.53408" lon="1.96943">
        <ele>148</ele>
        <time>2023-04-06T08:18:09Z</time>
      </trkpt>
      <trkpt lat="48.53418" lon="1.96947">
        <ele>147.9</ele>
        <time>2023-04-06T08:18:15Z</time>
      </trkpt>
      <trkpt lat="48.53427" lon="1.96952">
        <ele>148.1</ele>
        <time>2023-04-06T08:18:22Z</time>
      </trkpt>
      <trkpt lat="48.53437" lon="1.96957">
        <ele>148.3</ele>
        <time>2023-04-06T08:18:31Z</time>
      </trkpt>
      <trkpt lat="48.53446" lon="1.96961">
        <ele>148.4</ele>
        <time>2023-04-06T08:18:38Z</time>
      </trkpt>
      <trkpt lat="48.53455" lon="1.96967">
        <ele>148.2</ele>
        <time>2023-04-06T08:18:46Z</time>
      </trkpt>
      <trkpt lat="48.53464" lon="1.96968">
        <ele>148.2</ele>
        <time>2023-04-06T08:18:53Z</time>
      </trkpt>
      <trkpt lat="48.53473" lon="1.96965">
        <ele>148.2</ele>
        <time>2023-04-06T08:19:00Z</time>
      </trkpt>
      <trkpt lat="48.53483" lon="1.96961">
        <ele>148.4</ele>
        <time>2023-04-06T08:19:07Z</time>
      </trkpt>
      <trkpt lat="48.53493" lon="1.96957">
        <ele>148.5</ele>
        <time>2023-04-06T08:19:15Z</time>
      </trkpt>
      <trkpt lat="48.53502" lon="1.96954">
        <ele>148.6</ele>
        <time>2023-04-06T08:19:22Z</time>
      </trkpt>
      <trkpt lat="48.53511" lon="1.96952">
        <ele>148.3</ele>
        <time>2023-04-06T08:19:29Z</time>
      </trkpt>
      <trkpt lat="48.53521" lon="1.9695">
        <ele>148</ele>
        <time>2023-04-06T08:19:36Z</time>
      </trkpt>
      <trkpt lat="48.5353" lon="1.96949">
        <ele>147.8</ele>
        <time>2023-04-06T08:19:42Z</time>
      </trkpt>
      <trkpt lat="48.53539" lon="1.96946">
        <ele>147.5</ele>
        <time>2023-04-06T08:19:49Z</time>
      </trkpt>
      <trkpt lat="48.53549" lon="1.96945">
        <ele>147.2</ele>
        <time>2023-04-06T08:19:57Z</time>
      </trkpt>
      <trkpt lat="48.53558" lon="1.96942">
        <ele>146.9</ele>
        <time>2023-04-06T08:20:05Z</time>
      </trkpt>
      <trkpt lat="48.53568" lon="1.9694">
        <ele>146.3</ele>
        <time>2023-04-06T08:20:13Z</time>
      </trkpt>
      <trkpt lat="48.53577" lon="1.96938">
        <ele>145.7</ele>
        <time>2023-04-06T08:20:21Z</time>
      </trkpt>
      <trkpt lat="48.53587" lon="1.96937">
        <ele>145.1</ele>
        <time>2023-04-06T08:20:28Z</time>
      </trkpt>
      <trkpt lat="48.53597" lon="1.96936">
        <ele>144.8</ele>
        <time>2023-04-06T08:20:36Z</time>
      </trkpt>
      <trkpt lat="48.53607" lon="1.96935">
        <ele>144.5</ele>
        <time>2023-04-06T08:20:43Z</time>
      </trkpt>
      <trkpt lat="48.53617" lon="1.96933">
        <ele>143.9</ele>
        <time>2023-04-06T08:20:50Z</time>
      </trkpt>
      <trkpt lat="48.53628" lon="1.96932">
        <ele>143</ele>
        <time>2023-04-06T08:20:57Z</time>
      </trkpt>
      <trkpt lat="48.53638" lon="1.96931">
        <ele>142.1</ele>
        <time>2023-04-06T08:21:05Z</time>
      </trkpt>
      <trkpt lat="48.53648" lon="1.96932">
        <ele>141.2</ele>
        <time>2023-04-06T08:21:11Z</time>
      </trkpt>
      <trkpt lat="48.53658" lon="1.9693">
        <ele>140.3</ele>
        <time>2023-04-06T08:21:19Z</time>
      </trkpt>
      <trkpt lat="48.53667" lon="1.9693">
        <ele>139.5</ele>
        <time>2023-04-06T08:21:25Z</time>
      </trkpt>
      <trkpt lat="48.53678" lon="1.9693">
        <ele>138.7</ele>
        <time>2023-04-06T08:21:32Z</time>
      </trkpt>
      <trkpt lat="48.53687" lon="1.96926">
        <ele>138.2</ele>
        <time>2023-04-06T08:21:38Z</time>
      </trkpt>
      <trkpt lat="48.53697" lon="1.96924">
        <ele>137.6</ele>
        <time>2023-04-06T08:21:45Z</time>
      </trkpt>
      <trkpt lat="48.53706" lon="1.96922">
        <ele>137</ele>
        <time>2023-04-06T08:21:51Z</time>
      </trkpt>
      <trkpt lat="48.53715" lon="1.96923">
        <ele>136.3</ele>
        <time>2023-04-06T08:21:57Z</time>
      </trkpt>
      <trkpt lat="48.53725" lon="1.96923">
        <ele>135.6</ele>
        <time>2023-04-06T08:22:04Z</time>
      </trkpt>
      <trkpt lat="48.53735" lon="1.96923">
        <ele>134.9</ele>
        <time>2023-04-06T08:22:11Z</time>
      </trkpt>
      <trkpt lat="48.53745" lon="1.96922">
        <ele>134.3</ele>
        <time>2023-04-06T08:22:19Z</time>
      </trkpt>
      <trkpt lat="48.53754" lon="1.96922">
        <ele>133.8</ele>
        <time>2023-04-06T08:22:25Z</time>
      </trkpt>
      <trkpt lat="48.53764" lon="1.96921">
        <ele>133.4</ele>
        <time>2023-04-06T08:22:33Z</time>
      </trkpt>
      <trkpt lat="48.53773" lon="1.96916">
        <ele>133.2</ele>
        <time>2023-04-06T08:22:40Z</time>
      </trkpt>
      <trkpt lat="48.53782" lon="1.96912">
        <ele>133.3</ele>
        <time>2023-04-06T08:22:47Z</time>
      </trkpt>
      <trkpt lat="48.53791" lon="1.96912">
        <ele>133.6</ele>
        <time>2023-04-06T08:22:53Z</time>
      </trkpt>
      <trkpt lat="48.53794" lon="1.96926">
        <ele>133.5</ele>
        <time>2023-04-06T08:23:02Z</time>
      </trkpt>
      <trkpt lat="48.53796" lon="1.9694">
        <ele>133.3</ele>
        <time>2023-04-06T08:23:13Z</time>
      </trkpt>
      <trkpt lat="48.53798" lon="1.96955">
        <ele>133.1</ele>
        <time>2023-04-06T08:23:21Z</time>
      </trkpt>
      <trkpt lat="48.538" lon="1.96969">
        <ele>132.7</ele>
        <time>2023-04-06T08:23:28Z</time>
      </trkpt>
      <trkpt lat="48.53801" lon="1.96984">
        <ele>132.2</ele>
        <time>2023-04-06T08:23:35Z</time>
      </trkpt>
      <trkpt lat="48.53803" lon="1.96997">
        <ele>131.9</ele>
        <time>2023-04-06T08:23:41Z</time>
      </trkpt>
      <trkpt lat="48.53803" lon="1.97012">
        <ele>131.4</ele>
        <time>2023-04-06T08:23:48Z</time>
      </trkpt>
      <trkpt lat="48.53804" lon="1.97027">
        <ele>131</ele>
        <time>2023-04-06T08:23:55Z</time>
      </trkpt>
      <trkpt lat="48.53809" lon="1.97041">
        <ele>130.9</ele>
        <time>2023-04-06T08:24:01Z</time>
      </trkpt>
      <trkpt lat="48.53813" lon="1.97054">
        <ele>130.6</ele>
        <time>2023-04-06T08:24:07Z</time>
      </trkpt>
      <trkpt lat="48.53818" lon="1.97065">
        <ele>130.4</ele>
        <time>2023-04-06T08:24:14Z</time>
      </trkpt>
      <trkpt lat="48.53821" lon="1.9708">
        <ele>129.7</ele>
        <time>2023-04-06T08:24:22Z</time>
      </trkpt>
      <trkpt lat="48.53823" lon="1.97094">
        <ele>129.6</ele>
        <time>2023-04-06T08:24:29Z</time>
      </trkpt>
      <trkpt lat="48.53827" lon="1.97106">
        <ele>129.8</ele>
        <time>2023-04-06T08:24:36Z</time>
      </trkpt>
      <trkpt lat="48.53827" lon="1.97122">
        <ele>130</ele>
        <time>2023-04-06T08:24:43Z</time>
      </trkpt>
      <trkpt lat="48.53824" lon="1.97135">
        <ele>130</ele>
        <time>2023-04-06T08:24:50Z</time>
      </trkpt>
      <trkpt lat="48.53821" lon="1.97151">
        <ele>129.4</ele>
        <time>2023-04-06T08:24:57Z</time>
      </trkpt>
      <trkpt lat="48.53818" lon="1.97166">
        <ele>128.8</ele>
        <time>2023-04-06T08:25:04Z</time>
      </trkpt>
      <trkpt lat="48.53814" lon="1.9718">
        <ele>127.9</ele>
        <time>2023-04-06T08:25:12Z</time>
      </trkpt>
      <trkpt lat="48.53812" lon="1.97194">
        <ele>127.1</ele>
        <time>2023-04-06T08:25:18Z</time>
      </trkpt>
      <trkpt lat="48.53808" lon="1.97207">
        <ele>126.6</ele>
        <time>2023-04-06T08:25:23Z</time>
      </trkpt>
      <trkpt lat="48.53803" lon="1.9722">
        <ele>126</ele>
        <time>2023-04-06T08:25:30Z</time>
      </trkpt>
      <trkpt lat="48.53797" lon="1.97232">
        <ele>126.4</ele>
        <time>2023-04-06T08:25:38Z</time>
      </trkpt>
      <trkpt lat="48.53793" lon="1.97245">
        <ele>126.6</ele>
        <time>2023-04-06T08:25:44Z</time>
      </trkpt>
      <trkpt lat="48.53789" lon="1.97257">
        <ele>126.4</ele>
        <time>2023-04-06T08:25:51Z</time>
      </trkpt>
      <trkpt lat="48.53787" lon="1.9727">
        <ele>126.2</ele>
        <time>2023-04-06T08:25:59Z</time>
      </trkpt>
      <trkpt lat="48.53781" lon="1.97284">
        <ele>125.2</ele>
        <time>2023-04-06T08:26:07Z</time>
      </trkpt>
      <trkpt lat="48.53774" lon="1.97294">
        <ele>124.7</ele>
        <time>2023-04-06T08:26:15Z</time>
      </trkpt>
      <trkpt lat="48.53774" lon="1.97309">
        <ele>125</ele>
        <time>2023-04-06T08:26:25Z</time>
      </trkpt>
      <trkpt lat="48.53767" lon="1.9732">
        <ele>124.8</ele>
        <time>2023-04-06T08:26:34Z</time>
      </trkpt>
      <trkpt lat="48.53764" lon="1.97335">
        <ele>124.5</ele>
        <time>2023-04-06T08:26:42Z</time>
      </trkpt>
      <trkpt lat="48.53763" lon="1.9735">
        <ele>124.7</ele>
        <time>2023-04-06T08:26:49Z</time>
      </trkpt>
      <trkpt lat="48.5376" lon="1.97363">
        <ele>124.6</ele>
        <time>2023-04-06T08:26:57Z</time>
      </trkpt>
      <trkpt lat="48.53755" lon="1.97375">
        <ele>124.4</ele>
        <time>2023-04-06T08:27:03Z</time>
      </trkpt>
      <trkpt lat="48.53749" lon="1.97385">
        <ele>123.8</ele>
        <time>2023-04-06T08:27:10Z</time>
      </trkpt>
      <trkpt lat="48.53741" lon="1.97394">
        <ele>123.9</ele>
        <time>2023-04-06T08:27:17Z</time>
      </trkpt>
      <trkpt lat="48.53734" lon="1.97405">
        <ele>123.6</ele>
        <time>2023-04-06T08:27:25Z</time>
      </trkpt>
      <trkpt lat="48.53727" lon="1.97416">
        <ele>122.7</ele>
        <time>2023-04-06T08:27:33Z</time>
      </trkpt>
      <trkpt lat="48.53718" lon="1.97423">
        <ele>122.3</ele>
        <time>2023-04-06T08:27:41Z</time>
      </trkpt>
      <trkpt lat="48.5371" lon="1.97432">
        <ele>122.4</ele>
        <time>2023-04-06T08:27:50Z</time>
      </trkpt>
      <trkpt lat="48.53704" lon="1.97444">
        <ele>122</ele>
        <time>2023-04-06T08:27:57Z</time>
      </trkpt>
      <trkpt lat="48.53698" lon="1.97456">
        <ele>121.5</ele>
        <time>2023-04-06T08:28:03Z</time>
      </trkpt>
      <trkpt lat="48.53693" lon="1.9747">
        <ele>121</ele>
        <time>2023-04-06T08:28:10Z</time>
      </trkpt>
      <trkpt lat="48.53686" lon="1.97479">
        <ele>120.9</ele>
        <time>2023-04-06T08:28:16Z</time>
      </trkpt>
      <trkpt lat="48.53678" lon="1.97486">
        <ele>120.4</ele>
        <time>2023-04-06T08:28:24Z</time>
      </trkpt>
      <trkpt lat="48.5367" lon="1.97495">
        <ele>119.5</ele>
        <time>2023-04-06T08:28:31Z</time>
      </trkpt>
      <trkpt lat="48.53665" lon="1.97508">
        <ele>118.8</ele>
        <time>2023-04-06T08:28:39Z</time>
      </trkpt>
      <trkpt lat="48.53661" lon="1.97522">
        <ele>118.5</ele>
        <time>2023-04-06T08:28:47Z</time>
      </trkpt>
      <trkpt lat="48.53654" lon="1.97532">
        <ele>118.4</ele>
        <time>2023-04-06T08:28:54Z</time>
      </trkpt>
      <trkpt lat="48.53648" lon="1.97542">
        <ele>118.3</ele>
        <time>2023-04-06T08:29:01Z</time>
      </trkpt>
      <trkpt lat="48.53642" lon="1.97554">
        <ele>118</ele>
        <time>2023-04-06T08:29:08Z</time>
      </trkpt>
      <trkpt lat="48.5364" lon="1.97568">
        <ele>117.6</ele>
        <time>2023-04-06T08:29:14Z</time>
      </trkpt>
      <trkpt lat="48.53636" lon="1.97581">
        <ele>117.2</ele>
        <time>2023-04-06T08:29:21Z</time>
      </trkpt>
      <trkpt lat="48.53631" lon="1.97593">
        <ele>117.2</ele>
        <time>2023-04-06T08:29:27Z</time>
      </trkpt>
      <trkpt lat="48.53626" lon="1.97605">
        <ele>117.1</ele>
        <time>2023-04-06T08:29:33Z</time>
      </trkpt>
      <trkpt lat="48.53621" lon="1.97617">
        <ele>117</ele>
        <time>2023-04-06T08:29:39Z</time>
      </trkpt>
      <trkpt lat="48.53615" lon="1.97629">
        <ele>117</ele>
        <time>2023-04-06T08:29:45Z</time>
      </trkpt>
      <trkpt lat="48.53608" lon="1.97637">
        <ele>117.1</ele>
        <time>2023-04-06T08:29:52Z</time>
      </trkpt>
      <trkpt lat="48.53601" lon="1.97647">
        <ele>117.3</ele>
        <time>2023-04-06T08:29:59Z</time>
      </trkpt>
      <trkpt lat="48.53594" lon="1.97658">
        <ele>117.2</ele>
        <time>2023-04-06T08:30:06Z</time>
      </trkpt>
      <trkpt lat="48.53585" lon="1.97666">
        <ele>117</ele>
        <time>2023-04-06T08:30:14Z</time>
      </trkpt>
      <trkpt lat="48.53577" lon="1.97673">
        <ele>117</ele>
        <time>2023-04-06T08:30:21Z</time>
      </trkpt>
      <trkpt lat="48.53568" lon="1.97679">
        <ele>117.1</ele>
        <time>2023-04-06T08:30:28Z</time>
      </trkpt>
      <trkpt lat="48.53559" lon="1.97685">
        <ele>117.2</ele>
        <time>2023-04-06T08:30:35Z</time>
      </trkpt>
      <trkpt lat="48.5355" lon="1.97693">
        <ele>116.9</ele>
        <time>2023-04-06T08:30:43Z</time>
      </trkpt>
      <trkpt lat="48.53542" lon="1.97698">
        <ele>116.3</ele>
        <time>2023-04-06T08:30:50Z</time>
      </trkpt>
      <trkpt lat="48.53533" lon="1.97706">
        <ele>115.7</ele>
        <time>2023-04-06T08:30:58Z</time>
      </trkpt>
      <trkpt lat="48.53527" lon="1.97716">
        <ele>115.2</ele>
        <time>2023-04-06T08:31:06Z</time>
      </trkpt>
      <trkpt lat="48.53521" lon="1.97726">
        <ele>114.9</ele>
        <time>2023-04-06T08:31:15Z</time>
      </trkpt>
      <trkpt lat="48.53517" lon="1.9774">
        <ele>114.6</ele>
        <time>2023-04-06T08:31:21Z</time>
      </trkpt>
      <trkpt lat="48.53512" lon="1.97752">
        <ele>114.5</ele>
        <time>2023-04-06T08:31:28Z</time>
      </trkpt>
      <trkpt lat="48.53506" lon="1.97764">
        <ele>114.4</ele>
        <time>2023-04-06T08:31:36Z</time>
      </trkpt>
      <trkpt lat="48.53501" lon="1.97775">
        <ele>114.1</ele>
        <time>2023-04-06T08:31:45Z</time>
      </trkpt>
      <trkpt lat="48.53496" lon="1.97787">
        <ele>114</ele>
        <time>2023-04-06T08:31:51Z</time>
      </trkpt>
      <trkpt lat="48.53489" lon="1.97797">
        <ele>113.7</ele>
        <time>2023-04-06T08:31:58Z</time>
      </trkpt>
      <trkpt lat="48.53481" lon="1.97806">
        <ele>113.3</ele>
        <time>2023-04-06T08:32:04Z</time>
      </trkpt>
      <trkpt lat="48.53475" lon="1.97816">
        <ele>113.1</ele>
        <time>2023-04-06T08:32:11Z</time>
      </trkpt>
      <trkpt lat="48.53467" lon="1.97822">
        <ele>113</ele>
        <time>2023-04-06T08:32:18Z</time>
      </trkpt>
      <trkpt lat="48.53462" lon="1.97833">
        <ele>113</ele>
        <time>2023-04-06T08:32:24Z</time>
      </trkpt>
      <trkpt lat="48.53456" lon="1.97844">
        <ele>112.8</ele>
        <time>2023-04-06T08:32:31Z</time>
      </trkpt>
      <trkpt lat="48.53452" lon="1.97858">
        <ele>112.4</ele>
        <time>2023-04-06T08:32:37Z</time>
      </trkpt>
      <trkpt lat="48.53447" lon="1.97871">
        <ele>112.1</ele>
        <time>2023-04-06T08:32:44Z</time>
      </trkpt>
      <trkpt lat="48.53443" lon="1.97883">
        <ele>112</ele>
        <time>2023-04-06T08:32:51Z</time>
      </trkpt>
      <trkpt lat="48.53438" lon="1.97895">
        <ele>112.2</ele>
        <time>2023-04-06T08:32:59Z</time>
      </trkpt>
      <trkpt lat="48.53435" lon="1.97908">
        <ele>112.5</ele>
        <time>2023-04-06T08:33:20Z</time>
      </trkpt>
      <trkpt lat="48.5343" lon="1.97921">
        <ele>112.8</ele>
        <time>2023-04-06T08:34:38Z</time>
      </trkpt>
      <trkpt lat="48.53422" lon="1.9793">
        <ele>113.3</ele>
        <time>2023-04-06T08:34:46Z</time>
      </trkpt>
      <trkpt lat="48.53414" lon="1.97937">
        <ele>113.4</ele>
        <time>2023-04-06T08:34:52Z</time>
      </trkpt>
      <trkpt lat="48.53405" lon="1.97942">
        <ele>113.4</ele>
        <time>2023-04-06T08:34:59Z</time>
      </trkpt>
      <trkpt lat="48.53397" lon="1.97949">
        <ele>113.6</ele>
        <time>2023-04-06T08:35:07Z</time>
      </trkpt>
      <trkpt lat="48.53389" lon="1.97957">
        <ele>113.4</ele>
        <time>2023-04-06T08:35:14Z</time>
      </trkpt>
      <trkpt lat="48.5338" lon="1.97964">
        <ele>113.1</ele>
        <time>2023-04-06T08:35:21Z</time>
      </trkpt>
      <trkpt lat="48.53373" lon="1.97974">
        <ele>113</ele>
        <time>2023-04-06T08:35:29Z</time>
      </trkpt>
      <trkpt lat="48.53368" lon="1.97987">
        <ele>113.5</ele>
        <time>2023-04-06T08:35:36Z</time>
      </trkpt>
      <trkpt lat="48.53361" lon="1.97996">
        <ele>113.7</ele>
        <time>2023-04-06T08:35:44Z</time>
      </trkpt>
      <trkpt lat="48.53352" lon="1.98">
        <ele>114.3</ele>
        <time>2023-04-06T08:35:51Z</time>
      </trkpt>
      <trkpt lat="48.53346" lon="1.98011">
        <ele>115.5</ele>
        <time>2023-04-06T08:35:59Z</time>
      </trkpt>
      <trkpt lat="48.53351" lon="1.98025">
        <ele>116.5</ele>
        <time>2023-04-06T08:36:05Z</time>
      </trkpt>
      <trkpt lat="48.53356" lon="1.98037">
        <ele>117.1</ele>
        <time>2023-04-06T08:36:11Z</time>
      </trkpt>
      <trkpt lat="48.53355" lon="1.98051">
        <ele>118.3</ele>
        <time>2023-04-06T08:36:18Z</time>
      </trkpt>
      <trkpt lat="48.53354" lon="1.98066">
        <ele>119.5</ele>
        <time>2023-04-06T08:36:25Z</time>
      </trkpt>
      <trkpt lat="48.53358" lon="1.9808">
        <ele>120.1</ele>
        <time>2023-04-06T08:36:32Z</time>
      </trkpt>
      <trkpt lat="48.53357" lon="1.98094">
        <ele>120.8</ele>
        <time>2023-04-06T08:36:39Z</time>
      </trkpt>
      <trkpt lat="48.53355" lon="1.98107">
        <ele>121.4</ele>
        <time>2023-04-06T08:36:47Z</time>
      </trkpt>
      <trkpt lat="48.53357" lon="1.98122">
        <ele>121.3</ele>
        <time>2023-04-06T08:36:55Z</time>
      </trkpt>
      <trkpt lat="48.53357" lon="1.98136">
        <ele>121.2</ele>
        <time>2023-04-06T08:37:02Z</time>
      </trkpt>
      <trkpt lat="48.53357" lon="1.9815">
        <ele>121.4</ele>
        <time>2023-04-06T08:37:09Z</time>
      </trkpt>
      <trkpt lat="48.53357" lon="1.98164">
        <ele>121.8</ele>
        <time>2023-04-06T08:37:16Z</time>
      </trkpt>
      <trkpt lat="48.53356" lon="1.98178">
        <ele>122.1</ele>
        <time>2023-04-06T08:37:22Z</time>
      </trkpt>
      <trkpt lat="48.53355" lon="1.98193">
        <ele>122.6</ele>
        <time>2023-04-06T08:37:29Z</time>
      </trkpt>
      <trkpt lat="48.53355" lon="1.98207">
        <ele>122.5</ele>
        <time>2023-04-06T08:37:36Z</time>
      </trkpt>
      <trkpt lat="48.53354" lon="1.98221">
        <ele>122.5</ele>
        <time>2023-04-06T08:37:42Z</time>
      </trkpt>
      <trkpt lat="48.53354" lon="1.98236">
        <ele>122.5</ele>
        <time>2023-04-06T08:37:49Z</time>
      </trkpt>
      <trkpt lat="48.53355" lon="1.98252">
        <ele>122.5</ele>
        <time>2023-04-06T08:37:57Z</time>
      </trkpt>
      <trkpt lat="48.53355" lon="1.98267">
        <ele>122.1</ele>
        <time>2023-04-06T08:38:03Z</time>
      </trkpt>
      <trkpt lat="48.53356" lon="1.9828">
        <ele>121.7</ele>
        <time>2023-04-06T08:38:09Z</time>
      </trkpt>
      <trkpt lat="48.53357" lon="1.98296">
        <ele>121.2</ele>
        <time>2023-04-06T08:38:16Z</time>
      </trkpt>
      <trkpt lat="48.5336" lon="1.9831">
        <ele>120.9</ele>
        <time>2023-04-06T08:38:23Z</time>
      </trkpt>
      <trkpt lat="48.53362" lon="1.98326">
        <ele>121</ele>
        <time>2023-04-06T08:38:31Z</time>
      </trkpt>
      <trkpt lat="48.53364" lon="1.98341">
        <ele>120.8</ele>
        <time>2023-04-06T08:38:38Z</time>
      </trkpt>
      <trkpt lat="48.53364" lon="1.98357">
        <ele>120.3</ele>
        <time>2023-04-06T08:38:45Z</time>
      </trkpt>
      <trkpt lat="48.53366" lon="1.98371">
        <ele>119.8</ele>
        <time>2023-04-06T08:38:52Z</time>
      </trkpt>
      <trkpt lat="48.5337" lon="1.98385">
        <ele>119.5</ele>
        <time>2023-04-06T08:38:58Z</time>
      </trkpt>
      <trkpt lat="48.53378" lon="1.98393">
        <ele>119.5</ele>
        <time>2023-04-06T08:39:04Z</time>
      </trkpt>
      <trkpt lat="48.53387" lon="1.98387">
        <ele>120</ele>
        <time>2023-04-06T08:39:12Z</time>
      </trkpt>
      <trkpt lat="48.53395" lon="1.98383">
        <ele>120.4</ele>
        <time>2023-04-06T08:39:19Z</time>
      </trkpt>
      <trkpt lat="48.53404" lon="1.98377">
        <ele>120.7</ele>
        <time>2023-04-06T08:39:27Z</time>
      </trkpt>
      <trkpt lat="48.53413" lon="1.98371">
        <ele>120.9</ele>
        <time>2023-04-06T08:39:35Z</time>
      </trkpt>
      <trkpt lat="48.5342" lon="1.98363">
        <ele>121.1</ele>
        <time>2023-04-06T08:39:43Z</time>
      </trkpt>
      <trkpt lat="48.53428" lon="1.98355">
        <ele>121.6</ele>
        <time>2023-04-06T08:39:50Z</time>
      </trkpt>
      <trkpt lat="48.53437" lon="1.9835">
        <ele>122.1</ele>
        <time>2023-04-06T08:39:57Z</time>
      </trkpt>
      <trkpt lat="48.53446" lon="1.98343">
        <ele>122.7</ele>
        <time>2023-04-06T08:40:06Z</time>
      </trkpt>
      <trkpt lat="48.53454" lon="1.98336">
        <ele>122.9</ele>
        <time>2023-04-06T08:40:13Z</time>
      </trkpt>
      <trkpt lat="48.53462" lon="1.98328">
        <ele>123.2</ele>
        <time>2023-04-06T08:40:22Z</time>
      </trkpt>
      <trkpt lat="48.5347" lon="1.98322">
        <ele>123.4</ele>
        <time>2023-04-06T08:40:29Z</time>
      </trkpt>
      <trkpt lat="48.53479" lon="1.98315">
        <ele>123.7</ele>
        <time>2023-04-06T08:40:36Z</time>
      </trkpt>
      <trkpt lat="48.53488" lon="1.98309">
        <ele>123.9</ele>
        <time>2023-04-06T08:40:42Z</time>
      </trkpt>
      <trkpt lat="48.53496" lon="1.98301">
        <ele>124.2</ele>
        <time>2023-04-06T08:40:49Z</time>
      </trkpt>
      <trkpt lat="48.53505" lon="1.98294">
        <ele>124.6</ele>
        <time>2023-04-06T08:40:55Z</time>
      </trkpt>
      <trkpt lat="48.53512" lon="1.98285">
        <ele>125.2</ele>
        <time>2023-04-06T08:41:02Z</time>
      </trkpt>
      <trkpt lat="48.5352" lon="1.98279">
        <ele>125.7</ele>
        <time>2023-04-06T08:41:08Z</time>
      </trkpt>
      <trkpt lat="48.53529" lon="1.98271">
        <ele>126.2</ele>
        <time>2023-04-06T08:41:15Z</time>
      </trkpt>
      <trkpt lat="48.53537" lon="1.98262">
        <ele>126.3</ele>
        <time>2023-04-06T08:41:22Z</time>
      </trkpt>
      <trkpt lat="48.53545" lon="1.98255">
        <ele>126.2</ele>
        <time>2023-04-06T08:41:28Z</time>
      </trkpt>
      <trkpt lat="48.53552" lon="1.98245">
        <ele>126.5</ele>
        <time>2023-04-06T08:41:35Z</time>
      </trkpt>
      <trkpt lat="48.53559" lon="1.98233">
        <ele>127.2</ele>
        <time>2023-04-06T08:41:41Z</time>
      </trkpt>
      <trkpt lat="48.53567" lon="1.98224">
        <ele>127.9</ele>
        <time>2023-04-06T08:41:47Z</time>
      </trkpt>
      <trkpt lat="48.53576" lon="1.98215">
        <ele>128.3</ele>
        <time>2023-04-06T08:41:55Z</time>
      </trkpt>
      <trkpt lat="48.53584" lon="1.98209">
        <ele>128.5</ele>
        <time>2023-04-06T08:42:02Z</time>
      </trkpt>
      <trkpt lat="48.53592" lon="1.98202">
        <ele>129</ele>
        <time>2023-04-06T08:42:10Z</time>
      </trkpt>
      <trkpt lat="48.53602" lon="1.98196">
        <ele>129.6</ele>
        <time>2023-04-06T08:42:20Z</time>
      </trkpt>
      <trkpt lat="48.53609" lon="1.98187">
        <ele>130.2</ele>
        <time>2023-04-06T08:42:27Z</time>
      </trkpt>
      <trkpt lat="48.53617" lon="1.9818">
        <ele>131.2</ele>
        <time>2023-04-06T08:42:34Z</time>
      </trkpt>
      <trkpt lat="48.53625" lon="1.98175">
        <ele>132.3</ele>
        <time>2023-04-06T08:42:41Z</time>
      </trkpt>
      <trkpt lat="48.53634" lon="1.98168">
        <ele>133.4</ele>
        <time>2023-04-06T08:42:49Z</time>
      </trkpt>
      <trkpt lat="48.53642" lon="1.9816">
        <ele>134.5</ele>
        <time>2023-04-06T08:42:57Z</time>
      </trkpt>
      <trkpt lat="48.5365" lon="1.98153">
        <ele>135.7</ele>
        <time>2023-04-06T08:43:04Z</time>
      </trkpt>
      <trkpt lat="48.53658" lon="1.98145">
        <ele>136.9</ele>
        <time>2023-04-06T08:43:12Z</time>
      </trkpt>
      <trkpt lat="48.53666" lon="1.98136">
        <ele>138</ele>
        <time>2023-04-06T08:43:20Z</time>
      </trkpt>
      <trkpt lat="48.53674" lon="1.98132">
        <ele>138.8</ele>
        <time>2023-04-06T08:43:27Z</time>
      </trkpt>
      <trkpt lat="48.53683" lon="1.98125">
        <ele>139.6</ele>
        <time>2023-04-06T08:43:35Z</time>
      </trkpt>
      <trkpt lat="48.53691" lon="1.98119">
        <ele>140.5</ele>
        <time>2023-04-06T08:43:42Z</time>
      </trkpt>
      <trkpt lat="48.53698" lon="1.9811">
        <ele>141.2</ele>
        <time>2023-04-06T08:43:49Z</time>
      </trkpt>
      <trkpt lat="48.53706" lon="1.981">
        <ele>142</ele>
        <time>2023-04-06T08:43:57Z</time>
      </trkpt>
      <trkpt lat="48.53714" lon="1.98093">
        <ele>142.8</ele>
        <time>2023-04-06T08:44:04Z</time>
      </trkpt>
      <trkpt lat="48.53722" lon="1.98086">
        <ele>143.8</ele>
        <time>2023-04-06T08:44:12Z</time>
      </trkpt>
      <trkpt lat="48.53731" lon="1.98079">
        <ele>144.1</ele>
        <time>2023-04-06T08:44:20Z</time>
      </trkpt>
      <trkpt lat="48.53739" lon="1.98074">
        <ele>144.3</ele>
        <time>2023-04-06T08:44:27Z</time>
      </trkpt>
      <trkpt lat="48.53747" lon="1.98067">
        <ele>144.6</ele>
        <time>2023-04-06T08:44:35Z</time>
      </trkpt>
      <trkpt lat="48.53756" lon="1.98058">
        <ele>144.9</ele>
        <time>2023-04-06T08:44:44Z</time>
      </trkpt>
      <trkpt lat="48.53764" lon="1.98052">
        <ele>145.1</ele>
        <time>2023-04-06T08:44:51Z</time>
      </trkpt>
      <trkpt lat="48.53773" lon="1.98046">
        <ele>145.3</ele>
        <time>2023-04-06T08:44:58Z</time>
      </trkpt>
      <trkpt lat="48.53781" lon="1.98038">
        <ele>145.6</ele>
        <time>2023-04-06T08:45:05Z</time>
      </trkpt>
      <trkpt lat="48.53788" lon="1.98029">
        <ele>146</ele>
        <time>2023-04-06T08:45:11Z</time>
      </trkpt>
      <trkpt lat="48.53797" lon="1.98022">
        <ele>146.2</ele>
        <time>2023-04-06T08:45:18Z</time>
      </trkpt>
      <trkpt lat="48.53805" lon="1.98014">
        <ele>146.5</ele>
        <time>2023-04-06T08:45:25Z</time>
      </trkpt>
      <trkpt lat="48.53814" lon="1.98006">
        <ele>146.8</ele>
        <time>2023-04-06T08:45:32Z</time>
      </trkpt>
      <trkpt lat="48.53822" lon="1.97999">
        <ele>147</ele>
        <time>2023-04-06T08:45:39Z</time>
      </trkpt>
      <trkpt lat="48.5383" lon="1.97991">
        <ele>147.6</ele>
        <time>2023-04-06T08:45:46Z</time>
      </trkpt>
      <trkpt lat="48.53839" lon="1.97985">
        <ele>147.9</ele>
        <time>2023-04-06T08:45:54Z</time>
      </trkpt>
      <trkpt lat="48.53848" lon="1.97979">
        <ele>148.1</ele>
        <time>2023-04-06T08:46:01Z</time>
      </trkpt>
      <trkpt lat="48.53855" lon="1.9797">
        <ele>148.3</ele>
        <time>2023-04-06T08:46:06Z</time>
      </trkpt>
      <trkpt lat="48.53864" lon="1.9796">
        <ele>148.4</ele>
        <time>2023-04-06T08:46:11Z</time>
      </trkpt>
      <trkpt lat="48.53872" lon="1.97952">
        <ele>148.6</ele>
        <time>2023-04-06T08:46:18Z</time>
      </trkpt>
      <trkpt lat="48.5388" lon="1.97944">
        <ele>149</ele>
        <time>2023-04-06T08:46:24Z</time>
      </trkpt>
      <trkpt lat="48.53889" lon="1.97938">
        <ele>149.2</ele>
        <time>2023-04-06T08:46:30Z</time>
      </trkpt>
      <trkpt lat="48.53899" lon="1.97932">
        <ele>148.7</ele>
        <time>2023-04-06T08:46:37Z</time>
      </trkpt>
      <trkpt lat="48.53908" lon="1.97927">
        <ele>148.3</ele>
        <time>2023-04-06T08:46:43Z</time>
      </trkpt>
      <trkpt lat="48.53916" lon="1.97921">
        <ele>147.9</ele>
        <time>2023-04-06T08:46:50Z</time>
      </trkpt>
      <trkpt lat="48.53924" lon="1.97916">
        <ele>147.8</ele>
        <time>2023-04-06T08:46:58Z</time>
      </trkpt>
      <trkpt lat="48.53935" lon="1.97917">
        <ele>147.3</ele>
        <time>2023-04-06T08:47:08Z</time>
      </trkpt>
      <trkpt lat="48.53927" lon="1.97909">
        <ele>147.9</ele>
        <time>2023-04-06T08:48:10Z</time>
      </trkpt>
      <trkpt lat="48.53917" lon="1.97913">
        <ele>148.1</ele>
        <time>2023-04-06T08:48:19Z</time>
      </trkpt>
      <trkpt lat="48.53911" lon="1.97925">
        <ele>148.1</ele>
        <time>2023-04-06T08:48:27Z</time>
      </trkpt>
      <trkpt lat="48.53907" lon="1.97938">
        <ele>147.9</ele>
        <time>2023-04-06T08:48:34Z</time>
      </trkpt>
      <trkpt lat="48.53904" lon="1.97953">
        <ele>147.4</ele>
        <time>2023-04-06T08:48:42Z</time>
      </trkpt>
      <trkpt lat="48.53902" lon="1.97967">
        <ele>146.9</ele>
        <time>2023-04-06T08:48:48Z</time>
      </trkpt>
      <trkpt lat="48.53898" lon="1.97979">
        <ele>146.4</ele>
        <time>2023-04-06T08:48:55Z</time>
      </trkpt>
      <trkpt lat="48.53894" lon="1.97992">
        <ele>146.1</ele>
        <time>2023-04-06T08:49:02Z</time>
      </trkpt>
      <trkpt lat="48.53889" lon="1.98003">
        <ele>145.9</ele>
        <time>2023-04-06T08:49:09Z</time>
      </trkpt>
      <trkpt lat="48.53885" lon="1.98017">
        <ele>145.4</ele>
        <time>2023-04-06T08:49:16Z</time>
      </trkpt>
      <trkpt lat="48.5388" lon="1.9803">
        <ele>144.9</ele>
        <time>2023-04-06T08:49:23Z</time>
      </trkpt>
      <trkpt lat="48.53876" lon="1.98043">
        <ele>144.5</ele>
        <time>2023-04-06T08:49:31Z</time>
      </trkpt>
      <trkpt lat="48.53871" lon="1.98055">
        <ele>144</ele>
        <time>2023-04-06T08:49:38Z</time>
      </trkpt>
      <trkpt lat="48.53867" lon="1.98068">
        <ele>143.6</ele>
        <time>2023-04-06T08:49:45Z</time>
      </trkpt>
      <trkpt lat="48.53863" lon="1.9808">
        <ele>143.1</ele>
        <time>2023-04-06T08:49:52Z</time>
      </trkpt>
      <trkpt lat="48.53859" lon="1.98093">
        <ele>142.6</ele>
        <time>2023-04-06T08:50:00Z</time>
      </trkpt>
      <trkpt lat="48.53854" lon="1.98106">
        <ele>142.2</ele>
        <time>2023-04-06T08:50:06Z</time>
      </trkpt>
      <trkpt lat="48.53851" lon="1.98118">
        <ele>141.8</ele>
        <time>2023-04-06T08:50:12Z</time>
      </trkpt>
      <trkpt lat="48.53846" lon="1.98131">
        <ele>141.7</ele>
        <time>2023-04-06T08:50:18Z</time>
      </trkpt>
      <trkpt lat="48.53841" lon="1.98143">
        <ele>141.6</ele>
        <time>2023-04-06T08:50:24Z</time>
      </trkpt>
      <trkpt lat="48.53837" lon="1.98158">
        <ele>141.3</ele>
        <time>2023-04-06T08:50:30Z</time>
      </trkpt>
      <trkpt lat="48.53833" lon="1.98172">
        <ele>140.8</ele>
        <time>2023-04-06T08:50:37Z</time>
      </trkpt>
      <trkpt lat="48.5383" lon="1.98186">
        <ele>140.3</ele>
        <time>2023-04-06T08:50:44Z</time>
      </trkpt>
      <trkpt lat="48.53824" lon="1.98197">
        <ele>139.9</ele>
        <time>2023-04-06T08:50:51Z</time>
      </trkpt>
      <trkpt lat="48.53818" lon="1.98209">
        <ele>139.5</ele>
        <time>2023-04-06T08:50:59Z</time>
      </trkpt>
      <trkpt lat="48.53813" lon="1.98223">
        <ele>139</ele>
        <time>2023-04-06T08:51:06Z</time>
      </trkpt>
      <trkpt lat="48.53809" lon="1.98237">
        <ele>139</ele>
        <time>2023-04-06T08:51:13Z</time>
      </trkpt>
      <trkpt lat="48.53805" lon="1.98251">
        <ele>139</ele>
        <time>2023-04-06T08:51:21Z</time>
      </trkpt>
      <trkpt lat="48.538" lon="1.98264">
        <ele>138.5</ele>
        <time>2023-04-06T08:51:28Z</time>
      </trkpt>
      <trkpt lat="48.53796" lon="1.98277">
        <ele>138</ele>
        <time>2023-04-06T08:51:36Z</time>
      </trkpt>
      <trkpt lat="48.53791" lon="1.9829">
        <ele>137.6</ele>
        <time>2023-04-06T08:51:44Z</time>
      </trkpt>
      <trkpt lat="48.53786" lon="1.98305">
        <ele>137</ele>
        <time>2023-04-06T08:51:53Z</time>
      </trkpt>
      <trkpt lat="48.53783" lon="1.98318">
        <ele>136.2</ele>
        <time>2023-04-06T08:52:00Z</time>
      </trkpt>
      <trkpt lat="48.53779" lon="1.98331">
        <ele>135.2</ele>
        <time>2023-04-06T08:52:07Z</time>
      </trkpt>
      <trkpt lat="48.53774" lon="1.98342">
        <ele>134.7</ele>
        <time>2023-04-06T08:52:14Z</time>
      </trkpt>
      <trkpt lat="48.5377" lon="1.98354">
        <ele>134.3</ele>
        <time>2023-04-06T08:52:21Z</time>
      </trkpt>
      <trkpt lat="48.53769" lon="1.98368">
        <ele>133.8</ele>
        <time>2023-04-06T08:52:29Z</time>
      </trkpt>
      <trkpt lat="48.53775" lon="1.9838">
        <ele>133.3</ele>
        <time>2023-04-06T08:52:37Z</time>
      </trkpt>
      <trkpt lat="48.53782" lon="1.98389">
        <ele>133.2</ele>
        <time>2023-04-06T08:52:44Z</time>
      </trkpt>
      <trkpt lat="48.53791" lon="1.98396">
        <ele>133.2</ele>
        <time>2023-04-06T08:52:52Z</time>
      </trkpt>
      <trkpt lat="48.538" lon="1.98403">
        <ele>133.3</ele>
        <time>2023-04-06T08:53:01Z</time>
      </trkpt>
      <trkpt lat="48.5381" lon="1.98409">
        <ele>133.3</ele>
        <time>2023-04-06T08:53:09Z</time>
      </trkpt>
      <trkpt lat="48.53819" lon="1.98415">
        <ele>133.1</ele>
        <time>2023-04-06T08:53:18Z</time>
      </trkpt>
      <trkpt lat="48.53829" lon="1.98417">
        <ele>133</ele>
        <time>2023-04-06T08:53:26Z</time>
      </trkpt>
      <trkpt lat="48.53839" lon="1.98418">
        <ele>132.7</ele>
        <time>2023-04-06T08:53:33Z</time>
      </trkpt>
      <trkpt lat="48.53848" lon="1.98419">
        <ele>132.3</ele>
        <time>2023-04-06T08:53:40Z</time>
      </trkpt>
      <trkpt lat="48.53858" lon="1.98423">
        <ele>131.8</ele>
        <time>2023-04-06T08:53:47Z</time>
      </trkpt>
      <trkpt lat="48.53868" lon="1.98426">
        <ele>131.7</ele>
        <time>2023-04-06T08:53:53Z</time>
      </trkpt>
      <trkpt lat="48.53877" lon="1.9843">
        <ele>131.5</ele>
        <time>2023-04-06T08:54:01Z</time>
      </trkpt>
      <trkpt lat="48.53887" lon="1.98431">
        <ele>131.5</ele>
        <time>2023-04-06T08:54:09Z</time>
      </trkpt>
      <trkpt lat="48.53896" lon="1.98434">
        <ele>131.1</ele>
        <time>2023-04-06T08:54:15Z</time>
      </trkpt>
      <trkpt lat="48.53905" lon="1.9844">
        <ele>130.6</ele>
        <time>2023-04-06T08:54:21Z</time>
      </trkpt>
      <trkpt lat="48.53914" lon="1.98445">
        <ele>130.1</ele>
        <time>2023-04-06T08:54:29Z</time>
      </trkpt>
      <trkpt lat="48.53921" lon="1.98453">
        <ele>129.9</ele>
        <time>2023-04-06T08:54:36Z</time>
      </trkpt>
      <trkpt lat="48.53931" lon="1.98448">
        <ele>129.9</ele>
        <time>2023-04-06T08:54:46Z</time>
      </trkpt>
      <trkpt lat="48.53939" lon="1.98441">
        <ele>130.1</ele>
        <time>2023-04-06T08:54:53Z</time>
      </trkpt>
      <trkpt lat="48.53948" lon="1.98434">
        <ele>130.3</ele>
        <time>2023-04-06T08:55:00Z</time>
      </trkpt>
      <trkpt lat="48.53957" lon="1.98428">
        <ele>130.3</ele>
        <time>2023-04-06T08:55:07Z</time>
      </trkpt>
      <trkpt lat="48.53966" lon="1.98423">
        <ele>130.2</ele>
        <time>2023-04-06T08:55:13Z</time>
      </trkpt>
      <trkpt lat="48.53975" lon="1.98419">
        <ele>130</ele>
        <time>2023-04-06T08:55:20Z</time>
      </trkpt>
      <trkpt lat="48.53984" lon="1.98414">
        <ele>130</ele>
        <time>2023-04-06T08:55:27Z</time>
      </trkpt>
      <trkpt lat="48.53994" lon="1.98409">
        <ele>130</ele>
        <time>2023-04-06T08:55:35Z</time>
      </trkpt>
      <trkpt lat="48.54003" lon="1.98404">
        <ele>129.9</ele>
        <time>2023-04-06T08:55:44Z</time>
      </trkpt>
      <trkpt lat="48.54012" lon="1.984">
        <ele>129.8</ele>
        <time>2023-04-06T08:55:54Z</time>
      </trkpt>
      <trkpt lat="48.54022" lon="1.98398">
        <ele>129.7</ele>
        <time>2023-04-06T08:55:59Z</time>
      </trkpt>
      <trkpt lat="48.54032" lon="1.98393">
        <ele>129.8</ele>
        <time>2023-04-06T08:56:07Z</time>
      </trkpt>
      <trkpt lat="48.5404" lon="1.98387">
        <ele>130</ele>
        <time>2023-04-06T08:56:14Z</time>
      </trkpt>
      <trkpt lat="48.54049" lon="1.98381">
        <ele>130</ele>
        <time>2023-04-06T08:56:22Z</time>
      </trkpt>
      <trkpt lat="48.54058" lon="1.98377">
        <ele>130</ele>
        <time>2023-04-06T08:56:30Z</time>
      </trkpt>
      <trkpt lat="48.54067" lon="1.98373">
        <ele>130.2</ele>
        <time>2023-04-06T08:56:39Z</time>
      </trkpt>
      <trkpt lat="48.54075" lon="1.98367">
        <ele>130.6</ele>
        <time>2023-04-06T08:56:46Z</time>
      </trkpt>
      <trkpt lat="48.54084" lon="1.9836">
        <ele>131</ele>
        <time>2023-04-06T08:56:53Z</time>
      </trkpt>
      <trkpt lat="48.54092" lon="1.98353">
        <ele>131.8</ele>
        <time>2023-04-06T08:57:03Z</time>
      </trkpt>
      <trkpt lat="48.54101" lon="1.98347">
        <ele>133</ele>
        <time>2023-04-06T08:57:11Z</time>
      </trkpt>
      <trkpt lat="48.5411" lon="1.9834">
        <ele>134.6</ele>
        <time>2023-04-06T08:57:19Z</time>
      </trkpt>
      <trkpt lat="48.54118" lon="1.98334">
        <ele>137</ele>
        <time>2023-04-06T08:57:26Z</time>
      </trkpt>
      <trkpt lat="48.54128" lon="1.98332">
        <ele>140</ele>
        <time>2023-04-06T08:57:35Z</time>
      </trkpt>
      <trkpt lat="48.54138" lon="1.98328">
        <ele>143</ele>
        <time>2023-04-06T08:57:42Z</time>
      </trkpt>
      <trkpt lat="48.54146" lon="1.98323">
        <ele>145.3</ele>
        <time>2023-04-06T08:57:49Z</time>
      </trkpt>
      <trkpt lat="48.54155" lon="1.98316">
        <ele>147.4</ele>
        <time>2023-04-06T08:57:57Z</time>
      </trkpt>
      <trkpt lat="48.54164" lon="1.98312">
        <ele>149.3</ele>
        <time>2023-04-06T08:58:04Z</time>
      </trkpt>
      <trkpt lat="48.54173" lon="1.98307">
        <ele>150.7</ele>
        <time>2023-04-06T08:58:10Z</time>
      </trkpt>
      <trkpt lat="48.54182" lon="1.98303">
        <ele>151.8</ele>
        <time>2023-04-06T08:58:18Z</time>
      </trkpt>
      <trkpt lat="48.54191" lon="1.983">
        <ele>152.7</ele>
        <time>2023-04-06T08:58:27Z</time>
      </trkpt>
      <trkpt lat="48.542" lon="1.98293">
        <ele>153.5</ele>
        <time>2023-04-06T08:58:35Z</time>
      </trkpt>
      <trkpt lat="48.54209" lon="1.98292">
        <ele>154.3</ele>
        <time>2023-04-06T08:58:45Z</time>
      </trkpt>
      <trkpt lat="48.54219" lon="1.98287">
        <ele>155</ele>
        <time>2023-04-06T08:58:55Z</time>
      </trkpt>
      <trkpt lat="48.54227" lon="1.98281">
        <ele>155.8</ele>
        <time>2023-04-06T08:59:02Z</time>
      </trkpt>
      <trkpt lat="48.54234" lon="1.98273">
        <ele>156.7</ele>
        <time>2023-04-06T08:59:09Z</time>
      </trkpt>
      <trkpt lat="48.54243" lon="1.98265">
        <ele>157.4</ele>
        <time>2023-04-06T08:59:18Z</time>
      </trkpt>
      <trkpt lat="48.54251" lon="1.98257">
        <ele>157.6</ele>
        <time>2023-04-06T08:59:26Z</time>
      </trkpt>
      <trkpt lat="48.54261" lon="1.98252">
        <ele>157.9</ele>
        <time>2023-04-06T08:59:34Z</time>
      </trkpt>
      <trkpt lat="48.54269" lon="1.98245">
        <ele>158.2</ele>
        <time>2023-04-06T08:59:42Z</time>
      </trkpt>
      <trkpt lat="48.54279" lon="1.98243">
        <ele>158.8</ele>
        <time>2023-04-06T08:59:50Z</time>
      </trkpt>
      <trkpt lat="48.54286" lon="1.98234">
        <ele>158.8</ele>
        <time>2023-04-06T08:59:59Z</time>
      </trkpt>
      <trkpt lat="48.54295" lon="1.98228">
        <ele>158.8</ele>
        <time>2023-04-06T09:00:09Z</time>
      </trkpt>
      <trkpt lat="48.54303" lon="1.98222">
        <ele>158.9</ele>
        <time>2023-04-06T09:00:16Z</time>
      </trkpt>
      <trkpt lat="48.54312" lon="1.98216">
        <ele>158.6</ele>
        <time>2023-04-06T09:00:24Z</time>
      </trkpt>
      <trkpt lat="48.54321" lon="1.98212">
        <ele>158.4</ele>
        <time>2023-04-06T09:00:32Z</time>
      </trkpt>
      <trkpt lat="48.5433" lon="1.98206">
        <ele>158.4</ele>
        <time>2023-04-06T09:00:39Z</time>
      </trkpt>
      <trkpt lat="48.54339" lon="1.98201">
        <ele>158.6</ele>
        <time>2023-04-06T09:00:48Z</time>
      </trkpt>
      <trkpt lat="48.54348" lon="1.98196">
        <ele>159.1</ele>
        <time>2023-04-06T09:01:02Z</time>
      </trkpt>
      <trkpt lat="48.54357" lon="1.98193">
        <ele>159.7</ele>
        <time>2023-04-06T09:01:41Z</time>
      </trkpt>
      <trkpt lat="48.54363" lon="1.98182">
        <ele>160</ele>
        <time>2023-04-06T09:01:51Z</time>
      </trkpt>
      <trkpt lat="48.54367" lon="1.9817">
        <ele>160.2</ele>
        <time>2023-04-06T09:02:01Z</time>
      </trkpt>
      <trkpt lat="48.54368" lon="1.98155">
        <ele>160.3</ele>
        <time>2023-04-06T09:02:08Z</time>
      </trkpt>
      <trkpt lat="48.54372" lon="1.98141">
        <ele>160.4</ele>
        <time>2023-04-06T09:02:16Z</time>
      </trkpt>
      <trkpt lat="48.54377" lon="1.98128">
        <ele>160.4</ele>
        <time>2023-04-06T09:02:25Z</time>
      </trkpt>
      <trkpt lat="48.54382" lon="1.98115">
        <ele>160.5</ele>
        <time>2023-04-06T09:02:33Z</time>
      </trkpt>
      <trkpt lat="48.54385" lon="1.98102">
        <ele>160.7</ele>
        <time>2023-04-06T09:02:40Z</time>
      </trkpt>
      <trkpt lat="48.54389" lon="1.9809">
        <ele>161</ele>
        <time>2023-04-06T09:02:46Z</time>
      </trkpt>
      <trkpt lat="48.54393" lon="1.98076">
        <ele>161</ele>
        <time>2023-04-06T09:02:54Z</time>
      </trkpt>
      <trkpt lat="48.54396" lon="1.98062">
        <ele>161</ele>
        <time>2023-04-06T09:03:02Z</time>
      </trkpt>
      <trkpt lat="48.544" lon="1.98047">
        <ele>160.8</ele>
        <time>2023-04-06T09:03:09Z</time>
      </trkpt>
      <trkpt lat="48.54403" lon="1.98033">
        <ele>160.6</ele>
        <time>2023-04-06T09:03:15Z</time>
      </trkpt>
      <trkpt lat="48.5441" lon="1.98023">
        <ele>160.7</ele>
        <time>2023-04-06T09:03:23Z</time>
      </trkpt>
      <trkpt lat="48.54414" lon="1.9801">
        <ele>160.9</ele>
        <time>2023-04-06T09:03:31Z</time>
      </trkpt>
      <trkpt lat="48.54419" lon="1.97996">
        <ele>161</ele>
        <time>2023-04-06T09:03:38Z</time>
      </trkpt>
      <trkpt lat="48.54423" lon="1.97983">
        <ele>161</ele>
        <time>2023-04-06T09:03:45Z</time>
      </trkpt>
      <trkpt lat="48.54428" lon="1.9797">
        <ele>161</ele>
        <time>2023-04-06T09:03:52Z</time>
      </trkpt>
      <trkpt lat="48.54434" lon="1.97958">
        <ele>160.8</ele>
        <time>2023-04-06T09:03:59Z</time>
      </trkpt>
      <trkpt lat="48.5444" lon="1.97947">
        <ele>160.8</ele>
        <time>2023-04-06T09:04:07Z</time>
      </trkpt>
      <trkpt lat="48.54444" lon="1.97933">
        <ele>160.6</ele>
        <time>2023-04-06T09:04:14Z</time>
      </trkpt>
      <trkpt lat="48.54448" lon="1.97919">
        <ele>160.2</ele>
        <time>2023-04-06T09:04:20Z</time>
      </trkpt>
      <trkpt lat="48.54451" lon="1.97905">
        <ele>160.1</ele>
        <time>2023-04-06T09:04:26Z</time>
      </trkpt>
      <trkpt lat="48.54456" lon="1.97892">
        <ele>160</ele>
        <time>2023-04-06T09:04:33Z</time>
      </trkpt>
      <trkpt lat="48.54462" lon="1.9788">
        <ele>159.9</ele>
        <time>2023-04-06T09:04:41Z</time>
      </trkpt>
      <trkpt lat="48.54468" lon="1.97869">
        <ele>159.9</ele>
        <time>2023-04-06T09:04:48Z</time>
      </trkpt>
      <trkpt lat="48.54473" lon="1.97855">
        <ele>159.8</ele>
        <time>2023-04-06T09:04:55Z</time>
      </trkpt>
      <trkpt lat="48.54479" lon="1.97844">
        <ele>159.6</ele>
        <time>2023-04-06T09:05:00Z</time>
      </trkpt>
      <trkpt lat="48.5448" lon="1.97829">
        <ele>159.3</ele>
        <time>2023-04-06T09:05:07Z</time>
      </trkpt>
      <trkpt lat="48.54484" lon="1.97815">
        <ele>159.4</ele>
        <time>2023-04-06T09:05:13Z</time>
      </trkpt>
      <trkpt lat="48.54488" lon="1.97802">
        <ele>159.4</ele>
        <time>2023-04-06T09:05:20Z</time>
      </trkpt>
      <trkpt lat="48.54494" lon="1.97791">
        <ele>159.3</ele>
        <time>2023-04-06T09:05:27Z</time>
      </trkpt>
      <trkpt lat="48.54498" lon="1.97778">
        <ele>158.9</ele>
        <time>2023-04-06T09:05:34Z</time>
      </trkpt>
      <trkpt lat="48.54502" lon="1.97766">
        <ele>159.1</ele>
        <time>2023-04-06T09:05:41Z</time>
      </trkpt>
      <trkpt lat="48.54505" lon="1.97751">
        <ele>159.2</ele>
        <time>2023-04-06T09:05:49Z</time>
      </trkpt>
      <trkpt lat="48.5451" lon="1.97738">
        <ele>159.4</ele>
        <time>2023-04-06T09:05:55Z</time>
      </trkpt>
      <trkpt lat="48.54515" lon="1.97725">
        <ele>159.6</ele>
        <time>2023-04-06T09:06:02Z</time>
      </trkpt>
      <trkpt lat="48.54521" lon="1.97712">
        <ele>159.8</ele>
        <time>2023-04-06T09:06:09Z</time>
      </trkpt>
      <trkpt lat="48.54524" lon="1.977">
        <ele>160</ele>
        <time>2023-04-06T09:06:15Z</time>
      </trkpt>
      <trkpt lat="48.5453" lon="1.97688">
        <ele>160</ele>
        <time>2023-04-06T09:06:23Z</time>
      </trkpt>
      <trkpt lat="48.54536" lon="1.97677">
        <ele>160</ele>
        <time>2023-04-06T09:06:31Z</time>
      </trkpt>
      <trkpt lat="48.54541" lon="1.97664">
        <ele>160</ele>
        <time>2023-04-06T09:06:38Z</time>
      </trkpt>
      <trkpt lat="48.54544" lon="1.9765">
        <ele>160</ele>
        <time>2023-04-06T09:06:45Z</time>
      </trkpt>
      <trkpt lat="48.54549" lon="1.97637">
        <ele>160</ele>
        <time>2023-04-06T09:06:53Z</time>
      </trkpt>
      <trkpt lat="48.54554" lon="1.97624">
        <ele>160</ele>
        <time>2023-04-06T09:07:01Z</time>
      </trkpt>
      <trkpt lat="48.54557" lon="1.97609">
        <ele>160.1</ele>
        <time>2023-04-06T09:07:07Z</time>
      </trkpt>
      <trkpt lat="48.54565" lon="1.976">
        <ele>160.3</ele>
        <time>2023-04-06T09:07:15Z</time>
      </trkpt>
      <trkpt lat="48.5457" lon="1.97588">
        <ele>160.5</ele>
        <time>2023-04-06T09:07:20Z</time>
      </trkpt>
      <trkpt lat="48.54575" lon="1.97574">
        <ele>160.7</ele>
        <time>2023-04-06T09:07:26Z</time>
      </trkpt>
      <trkpt lat="48.54578" lon="1.9756">
        <ele>160.8</ele>
        <time>2023-04-06T09:07:32Z</time>
      </trkpt>
      <trkpt lat="48.54582" lon="1.97546">
        <ele>161</ele>
        <time>2023-04-06T09:07:38Z</time>
      </trkpt>
      <trkpt lat="48.54586" lon="1.97534">
        <ele>161</ele>
        <time>2023-04-06T09:07:45Z</time>
      </trkpt>
      <trkpt lat="48.54593" lon="1.97523">
        <ele>161</ele>
        <time>2023-04-06T09:07:53Z</time>
      </trkpt>
      <trkpt lat="48.54597" lon="1.97509">
        <ele>161</ele>
        <time>2023-04-06T09:08:00Z</time>
      </trkpt>
      <trkpt lat="48.546" lon="1.97495">
        <ele>161</ele>
        <time>2023-04-06T09:08:07Z</time>
      </trkpt>
      <trkpt lat="48.54606" lon="1.97482">
        <ele>161</ele>
        <time>2023-04-06T09:08:14Z</time>
      </trkpt>
      <trkpt lat="48.54606" lon="1.97468">
        <ele>161</ele>
        <time>2023-04-06T09:08:21Z</time>
      </trkpt>
      <trkpt lat="48.54612" lon="1.97457">
        <ele>161</ele>
        <time>2023-04-06T09:08:28Z</time>
      </trkpt>
      <trkpt lat="48.54618" lon="1.97447">
        <ele>161</ele>
        <time>2023-04-06T09:08:34Z</time>
      </trkpt>
      <trkpt lat="48.54623" lon="1.97435">
        <ele>161</ele>
        <time>2023-04-06T09:08:40Z</time>
      </trkpt>
      <trkpt lat="48.54626" lon="1.97422">
        <ele>161</ele>
        <time>2023-04-06T09:08:46Z</time>
      </trkpt>
      <trkpt lat="48.54629" lon="1.97408">
        <ele>161</ele>
        <time>2023-04-06T09:08:52Z</time>
      </trkpt>
      <trkpt lat="48.54634" lon="1.97395">
        <ele>161</ele>
        <time>2023-04-06T09:09:00Z</time>
      </trkpt>
      <trkpt lat="48.5464" lon="1.97382">
        <ele>161</ele>
        <time>2023-04-06T09:09:07Z</time>
      </trkpt>
      <trkpt lat="48.54643" lon="1.97369">
        <ele>161</ele>
        <time>2023-04-06T09:09:13Z</time>
      </trkpt>
      <trkpt lat="48.54646" lon="1.97353">
        <ele>161</ele>
        <time>2023-04-06T09:09:20Z</time>
      </trkpt>
      <trkpt lat="48.54649" lon="1.9734">
        <ele>161</ele>
        <time>2023-04-06T09:09:27Z</time>
      </trkpt>
      <trkpt lat="48.54655" lon="1.97328">
        <ele>161</ele>
        <time>2023-04-06T09:09:34Z</time>
      </trkpt>
      <trkpt lat="48.54659" lon="1.97316">
        <ele>161</ele>
        <time>2023-04-06T09:09:41Z</time>
      </trkpt>
      <trkpt lat="48.54663" lon="1.97302">
        <ele>161</ele>
        <time>2023-04-06T09:09:48Z</time>
      </trkpt>
      <trkpt lat="48.54668" lon="1.97288">
        <ele>161</ele>
        <time>2023-04-06T09:09:56Z</time>
      </trkpt>
      <trkpt lat="48.54673" lon="1.97276">
        <ele>161</ele>
        <time>2023-04-06T09:10:04Z</time>
      </trkpt>
      <trkpt lat="48.54678" lon="1.97264">
        <ele>161</ele>
        <time>2023-04-06T09:10:15Z</time>
      </trkpt>
      <trkpt lat="48.54682" lon="1.9725">
        <ele>161</ele>
        <time>2023-04-06T09:10:23Z</time>
      </trkpt>
      <trkpt lat="48.54684" lon="1.97235">
        <ele>161</ele>
        <time>2023-04-06T09:10:29Z</time>
      </trkpt>
      <trkpt lat="48.54689" lon="1.97222">
        <ele>161</ele>
        <time>2023-04-06T09:10:37Z</time>
      </trkpt>
      <trkpt lat="48.54695" lon="1.97211">
        <ele>161</ele>
        <time>2023-04-06T09:10:46Z</time>
      </trkpt>
      <trkpt lat="48.54702" lon="1.97201">
        <ele>161</ele>
        <time>2023-04-06T09:10:54Z</time>
      </trkpt>
      <trkpt lat="48.54705" lon="1.97188">
        <ele>161</ele>
        <time>2023-04-06T09:11:03Z</time>
      </trkpt>
      <trkpt lat="48.54708" lon="1.97173">
        <ele>161</ele>
        <time>2023-04-06T09:11:13Z</time>
      </trkpt>
      <trkpt lat="48.54707" lon="1.97159">
        <ele>161</ele>
        <time>2023-04-06T09:11:20Z</time>
      </trkpt>
      <trkpt lat="48.54704" lon="1.97145">
        <ele>161</ele>
        <time>2023-04-06T09:11:29Z</time>
      </trkpt>
      <trkpt lat="48.547" lon="1.97131">
        <ele>161</ele>
        <time>2023-04-06T09:11:37Z</time>
      </trkpt>
      <trkpt lat="48.54697" lon="1.97118">
        <ele>161</ele>
        <time>2023-04-06T09:11:45Z</time>
      </trkpt>
      <trkpt lat="48.54694" lon="1.97103">
        <ele>161</ele>
        <time>2023-04-06T09:11:53Z</time>
      </trkpt>
      <trkpt lat="48.54691" lon="1.9709">
        <ele>161</ele>
        <time>2023-04-06T09:12:00Z</time>
      </trkpt>
      <trkpt lat="48.54687" lon="1.97075">
        <ele>160.9</ele>
        <time>2023-04-06T09:12:07Z</time>
      </trkpt>
      <trkpt lat="48.54685" lon="1.9706">
        <ele>160.7</ele>
        <time>2023-04-06T09:12:15Z</time>
      </trkpt>
      <trkpt lat="48.54682" lon="1.97046">
        <ele>160.3</ele>
        <time>2023-04-06T09:12:23Z</time>
      </trkpt>
      <trkpt lat="48.5468" lon="1.97032">
        <ele>160.1</ele>
        <time>2023-04-06T09:12:30Z</time>
      </trkpt>
      <trkpt lat="48.54678" lon="1.97019">
        <ele>159.8</ele>
        <time>2023-04-06T09:12:37Z</time>
      </trkpt>
      <trkpt lat="48.54676" lon="1.97004">
        <ele>159.4</ele>
        <time>2023-04-06T09:12:44Z</time>
      </trkpt>
      <trkpt lat="48.54673" lon="1.96991">
        <ele>159.2</ele>
        <time>2023-04-06T09:12:50Z</time>
      </trkpt>
      <trkpt lat="48.54671" lon="1.96976">
        <ele>159</ele>
        <time>2023-04-06T09:12:56Z</time>
      </trkpt>
      <trkpt lat="48.54669" lon="1.96962">
        <ele>159</ele>
        <time>2023-04-06T09:13:03Z</time>
      </trkpt>
      <trkpt lat="48.54667" lon="1.96947">
        <ele>159</ele>
        <time>2023-04-06T09:13:10Z</time>
      </trkpt>
      <trkpt lat="48.54662" lon="1.96934">
        <ele>158.9</ele>
        <time>2023-04-06T09:13:17Z</time>
      </trkpt>
      <trkpt lat="48.54658" lon="1.96921">
        <ele>158.7</ele>
        <time>2023-04-06T09:13:24Z</time>
      </trkpt>
      <trkpt lat="48.54657" lon="1.96907">
        <ele>158.7</ele>
        <time>2023-04-06T09:13:31Z</time>
      </trkpt>
      <trkpt lat="48.54656" lon="1.96894">
        <ele>158.6</ele>
        <time>2023-04-06T09:13:38Z</time>
      </trkpt>
      <trkpt lat="48.54654" lon="1.9688">
        <ele>158.4</ele>
        <time>2023-04-06T09:13:46Z</time>
      </trkpt>
      <trkpt lat="48.54651" lon="1.96867">
        <ele>158.1</ele>
        <time>2023-04-06T09:13:52Z</time>
      </trkpt>
      <trkpt lat="48.54648" lon="1.96853">
        <ele>158.1</ele>
        <time>2023-04-06T09:13:59Z</time>
      </trkpt>
      <trkpt lat="48.54646" lon="1.96839">
        <ele>158.2</ele>
        <time>2023-04-06T09:14:06Z</time>
      </trkpt>
      <trkpt lat="48.54642" lon="1.96825">
        <ele>158.4</ele>
        <time>2023-04-06T09:14:12Z</time>
      </trkpt>
      <trkpt lat="48.54639" lon="1.96811">
        <ele>158.8</ele>
        <time>2023-04-06T09:14:19Z</time>
      </trkpt>
      <trkpt lat="48.54636" lon="1.96797">
        <ele>158.9</ele>
        <time>2023-04-06T09:14:25Z</time>
      </trkpt>
      <trkpt lat="48.54634" lon="1.96783">
        <ele>159</ele>
        <time>2023-04-06T09:14:32Z</time>
      </trkpt>
      <trkpt lat="48.54633" lon="1.96768">
        <ele>159</ele>
        <time>2023-04-06T09:14:40Z</time>
      </trkpt>
      <trkpt lat="48.54631" lon="1.96754">
        <ele>159</ele>
        <time>2023-04-06T09:14:47Z</time>
      </trkpt>
      <trkpt lat="48.54628" lon="1.9674">
        <ele>159</ele>
        <time>2023-04-06T09:14:54Z</time>
      </trkpt>
      <trkpt lat="48.54625" lon="1.96725">
        <ele>159</ele>
        <time>2023-04-06T09:15:01Z</time>
      </trkpt>
      <trkpt lat="48.54623" lon="1.9671">
        <ele>159</ele>
        <time>2023-04-06T09:15:09Z</time>
      </trkpt>
      <trkpt lat="48.54621" lon="1.96695">
        <ele>159</ele>
        <time>2023-04-06T09:15:17Z</time>
      </trkpt>
      <trkpt lat="48.54618" lon="1.96682">
        <ele>159.5</ele>
        <time>2023-04-06T09:15:23Z</time>
      </trkpt>
      <trkpt lat="48.54615" lon="1.96667">
        <ele>160</ele>
        <time>2023-04-06T09:15:30Z</time>
      </trkpt>
      <trkpt lat="48.54613" lon="1.96654">
        <ele>160</ele>
        <time>2023-04-06T09:15:36Z</time>
      </trkpt>
      <trkpt lat="48.54611" lon="1.96639">
        <ele>160</ele>
        <time>2023-04-06T09:15:43Z</time>
      </trkpt>
      <trkpt lat="48.54607" lon="1.96625">
        <ele>160</ele>
        <time>2023-04-06T09:15:50Z</time>
      </trkpt>
      <trkpt lat="48.54603" lon="1.96612">
        <ele>160</ele>
        <time>2023-04-06T09:15:56Z</time>
      </trkpt>
      <trkpt lat="48.54601" lon="1.96598">
        <ele>160</ele>
        <time>2023-04-06T09:16:03Z</time>
      </trkpt>
      <trkpt lat="48.54598" lon="1.96583">
        <ele>160</ele>
        <time>2023-04-06T09:16:10Z</time>
      </trkpt>
      <trkpt lat="48.54595" lon="1.9657">
        <ele>160</ele>
        <time>2023-04-06T09:16:17Z</time>
      </trkpt>
      <trkpt lat="48.54592" lon="1.96556">
        <ele>160</ele>
        <time>2023-04-06T09:16:23Z</time>
      </trkpt>
      <trkpt lat="48.54591" lon="1.96541">
        <ele>160</ele>
        <time>2023-04-06T09:16:30Z</time>
      </trkpt>
      <trkpt lat="48.5459" lon="1.96527">
        <ele>160</ele>
        <time>2023-04-06T09:16:37Z</time>
      </trkpt>
      <trkpt lat="48.54589" lon="1.96512">
        <ele>160</ele>
        <time>2023-04-06T09:16:44Z</time>
      </trkpt>
      <trkpt lat="48.54586" lon="1.96498">
        <ele>160</ele>
        <time>2023-04-06T09:16:52Z</time>
      </trkpt>
      <trkpt lat="48.54583" lon="1.96483">
        <ele>160</ele>
        <time>2023-04-06T09:17:00Z</time>
      </trkpt>
      <trkpt lat="48.54581" lon="1.96469">
        <ele>160</ele>
        <time>2023-04-06T09:17:07Z</time>
      </trkpt>
      <trkpt lat="48.54578" lon="1.96456">
        <ele>160</ele>
        <time>2023-04-06T09:17:14Z</time>
      </trkpt>
      <trkpt lat="48.54577" lon="1.96441">
        <ele>160</ele>
        <time>2023-04-06T09:17:21Z</time>
      </trkpt>
      <trkpt lat="48.54574" lon="1.96428">
        <ele>160</ele>
        <time>2023-04-06T09:17:28Z</time>
      </trkpt>
      <trkpt lat="48.54571" lon="1.96415">
        <ele>160</ele>
        <time>2023-04-06T09:17:33Z</time>
      </trkpt>
      <trkpt lat="48.54568" lon="1.96401">
        <ele>160</ele>
        <time>2023-04-06T09:17:40Z</time>
      </trkpt>
      <trkpt lat="48.54565" lon="1.96386">
        <ele>160</ele>
        <time>2023-04-06T09:17:48Z</time>
      </trkpt>
      <trkpt lat="48.54562" lon="1.96373">
        <ele>160</ele>
        <time>2023-04-06T09:17:54Z</time>
      </trkpt>
      <trkpt lat="48.5456" lon="1.96358">
        <ele>160</ele>
        <time>2023-04-06T09:18:02Z</time>
      </trkpt>
      <trkpt lat="48.54558" lon="1.96345">
        <ele>160</ele>
        <time>2023-04-06T09:18:09Z</time>
      </trkpt>
      <trkpt lat="48.54554" lon="1.96332">
        <ele>160</ele>
        <time>2023-04-06T09:18:15Z</time>
      </trkpt>
      <trkpt lat="48.54552" lon="1.96319">
        <ele>160</ele>
        <time>2023-04-06T09:18:21Z</time>
      </trkpt>
      <trkpt lat="48.5455" lon="1.96304">
        <ele>160</ele>
        <time>2023-04-06T09:18:29Z</time>
      </trkpt>
      <trkpt lat="48.54548" lon="1.96291">
        <ele>160</ele>
        <time>2023-04-06T09:18:36Z</time>
      </trkpt>
      <trkpt lat="48.54547" lon="1.96277">
        <ele>160</ele>
        <time>2023-04-06T09:18:43Z</time>
      </trkpt>
      <trkpt lat="48.54543" lon="1.96264">
        <ele>160</ele>
        <time>2023-04-06T09:18:49Z</time>
      </trkpt>
      <trkpt lat="48.54541" lon="1.9625">
        <ele>160</ele>
        <time>2023-04-06T09:18:56Z</time>
      </trkpt>
      <trkpt lat="48.54539" lon="1.96235">
        <ele>160</ele>
        <time>2023-04-06T09:19:04Z</time>
      </trkpt>
      <trkpt lat="48.54536" lon="1.9622">
        <ele>160</ele>
        <time>2023-04-06T09:19:11Z</time>
      </trkpt>
      <trkpt lat="48.54535" lon="1.96205">
        <ele>160</ele>
        <time>2023-04-06T09:19:19Z</time>
      </trkpt>
      <trkpt lat="48.54533" lon="1.96191">
        <ele>160</ele>
        <time>2023-04-06T09:19:26Z</time>
      </trkpt>
      <trkpt lat="48.5453" lon="1.96177">
        <ele>160</ele>
        <time>2023-04-06T09:19:33Z</time>
      </trkpt>
      <trkpt lat="48.54529" lon="1.96163">
        <ele>160</ele>
        <time>2023-04-06T09:19:40Z</time>
      </trkpt>
      <trkpt lat="48.54528" lon="1.96148">
        <ele>160</ele>
        <time>2023-04-06T09:19:47Z</time>
      </trkpt>
      <trkpt lat="48.54527" lon="1.96133">
        <ele>160</ele>
        <time>2023-04-06T09:19:54Z</time>
      </trkpt>
      <trkpt lat="48.54527" lon="1.96118">
        <ele>160</ele>
        <time>2023-04-06T09:20:02Z</time>
      </trkpt>
      <trkpt lat="48.54525" lon="1.96104">
        <ele>160</ele>
        <time>2023-04-06T09:20:13Z</time>
      </trkpt>
      <trkpt lat="48.54522" lon="1.96091">
        <ele>160</ele>
        <time>2023-04-06T09:20:27Z</time>
      </trkpt>
      <trkpt lat="48.54523" lon="1.96076">
        <ele>160</ele>
        <time>2023-04-06T09:20:41Z</time>
      </trkpt>
      <trkpt lat="48.54519" lon="1.96063">
        <ele>160</ele>
        <time>2023-04-06T09:21:10Z</time>
      </trkpt>
    </trkseg>
  </trk>
</gpx>